Data for 03/13/2012

Time Sea-Level Adjusted Pressure Absolute Pressure Temperature Relative Humidity Dew Point Precipitation   
(mb) (inHg) (mb) (inHg) (C) (F) (%) (C) (F) (mm) (in)
00:01 1009 29.8 838 24.75 8.3 46.9 31 -7.7 18.1 0 0
00:02 1009 29.8 838 24.75 8.6 47.5 32 -7.3 18.9 0 0
00:03 1009 29.8 838 24.75 8.7 47.6 31 -7.7 18.1 0 0
00:04 1009 29.8 838 24.75 8.7 47.7 32 -7.2 19.1 0 0
00:05 1009 29.8 838 24.75 8.8 47.8 30 -7.7 18.2 0 0
00:06 1009 29.8 838 24.75 9 48.1 30 -7.7 18.1 0 0
00:07 1009 29.8 838 24.75 9.2 48.6 28 -8.5 16.7 0 0
00:08 1009 29.8 838 24.75 9.6 49.3 27 -8.4 16.8 0 0
00:09 1009 29.8 838 24.75 9.8 49.6 26 -8.8 16.2 0 0
00:10 1009 29.8 838 24.75 9.9 49.8 28 -7.6 18.3 0 0
00:11 1009 29.8 838 24.75 9.7 49.5 30 -7.1 19.3 0 0
00:12 1009 29.8 838 24.75 9.5 49.1 29 -7.7 18.1 0 0
00:13 1009 29.8 838 24.75 9.5 49.2 28 -8.1 17.4 0 0
00:14 1009 29.8 838 24.75 9.6 49.3 28 -8 17.6 0 0
00:15 1009 29.8 838 24.75 9.6 49.3 29 -7.4 18.7 0 0
00:16 1009 29.8 838 24.75 9.6 49.2 29 -7.7 18.2 0 0
00:17 1009 29.8 838 24.75 9.4 49 29 -7.6 18.4 0 0
00:18 1009 29.8 838 24.75 9.5 49 29 -7.9 17.8 0 0
00:19 1009 29.8 838 24.75 9.4 49 31 -6.9 19.7 0 0
00:20 1009 29.8 838 24.75 9.1 48.3 32 -6.7 19.9 0 0
00:21 1009 29.8 838 24.75 8.7 47.7 31 -7.5 18.6 0 0
00:22 1009 29.8 838 24.75 8.6 47.6 30 -7.8 18 0 0
00:23 1009 29.8 838 24.75 8.8 47.9 32 -7 19.3 0 0
00:24 1009 29.8 838 24.75 9 48.3 27 -8.8 16.2 0 0
00:25 1009 29.8 838 24.75 9.5 49.1 28 -7.9 17.8 0 0
00:26 1009 29.8 838 24.75 9.7 49.5 25 -9.2 15.5 0 0
00:27 1009 29.8 838 24.75 10.1 50.3 26 -8.7 16.4 0 0
00:28 1009 29.8 838 24.75 10.2 50.4 27 -7.8 17.9 0 0
00:29 1009 29.8 838 24.75 10.1 50.1 28 -7.8 17.9 0 0
00:30 1009 29.8 838 24.75 9.7 49.5 27 -8.3 17 0 0
00:31 1009 29.8 838 24.75 9.6 49.3 28 -8 17.5 0 0
00:32 1009 29.8 838 24.75 9.5 49 30 -7.2 19 0 0
00:33 1009 29.8 838 24.75 9 48.3 29 -8.2 17.3 0 0
00:34 1009 29.8 838 24.75 8.9 48 30 -8 17.7 0 0
00:35 1009 29.8 838 24.75 9 48.1 29 -8.4 17 0 0
00:36 1009 29.8 838 24.75 9.2 48.6 28 -8.2 17.2 0 0
00:37 1009 29.8 838 24.75 9.4 49 30 -7.4 18.7 0 0
00:38 1009 29.8 838 24.75 9.3 48.7 30 -7.3 18.9 0 0
00:39 1009 29.8 838 24.75 9 48.2 29 -8.1 17.5 0 0
00:40 1009 29.8 838 24.75 9 48.2 29 -8 17.6 0 0
00:41 1009 29.8 838 24.75 9.1 48.3 30 -7.7 18.1 0 0
00:42 1009 29.8 838 24.75 9 48.2 30 -7.9 17.8 0 0
00:43 1009 29.8 838 24.75 8.8 47.8 31 -7.4 18.6 0 0
00:44 1009 29.8 838 24.75 8.5 47.3 30 -8.1 17.3 0 0
00:45 1009 29.8 838 24.75 8.5 47.4 31 -7.5 18.4 0 0
00:46 1009 29.8 838 24.75 8.4 47.1 33 -7.1 19.3 0 0
00:47 1009 29.8 838 24.75 8.2 46.7 33 -7 19.4 0 0
00:48 1009 29.8 838 24.75 8 46.4 33 -7.4 18.7 0 0
00:49 1009 29.8 838 24.75 7.9 46.2 35 -6.8 19.8 0 0
00:50 1009 29.8 838 24.75 7.5 45.6 34 -7.4 18.7 0 0
00:51 1009 29.8 838 24.75 7.3 45.2 35 -7.1 19.3 0 0
00:52 1009 29.8 838 24.75 7.2 45 37 -6.6 20.1 0 0
00:53 1009 29.8 838 24.75 7 44.6 37 -6.6 20.2 0 0
00:54 1009 29.8 838 24.75 6.9 44.4 37 -6.7 19.9 0 0
00:55 1009 29.8 838 24.75 6.9 44.4 35 -7.7 18.1 0 0
00:56 1009 29.8 838 24.75 7.3 45.1 29 -9.4 15 0 0
00:57 1008 29.77 838 24.75 8 46.3 30 -8.6 16.5 0 0
00:58 1008 29.77 838 24.75 8.4 47.1 32 -7.2 19 0 0
00:59 1008 29.77 838 24.75 8.2 46.8 34 -6.7 20 0 0
01:00 1008 29.77 838 24.75 7.8 46 33 -7.4 18.6 0 0
01:01 1008 29.77 838 24.75 7.7 45.9 33 -7.4 18.6 0 0
01:02 1008 29.77 838 24.75 7.5 45.5 36 -6.6 20.1 0 0
01:03 1008 29.77 838 24.75 7.3 45.1 35 -7.1 19.2 0 0
01:04 1008 29.77 838 24.75 7.3 45.2 35 -7 19.4 0 0
01:05 1008 29.77 837 24.72 7.3 45.1 36 -6.8 19.7 0 0
01:06 1008 29.77 837 24.72 7.5 45.5 34 -7.5 18.5 0 0
01:07 1008 29.77 837 24.72 8.3 46.9 29 -8.7 16.4 0 0
01:08 1008 29.77 837 24.72 8.9 48 28 -8.5 16.8 0 0
01:09 1008 29.77 837 24.72 9.1 48.3 29 -7.8 17.9 0 0
01:10 1008 29.77 837 24.72 9 48.1 31 -7.1 19.2 0 0
01:11 1008 29.77 837 24.72 8.7 47.7 32 -7.2 19 0 0
01:12 1008 29.77 837 24.72 8.4 47.1 33 -6.8 19.7 0 0
01:13 1008 29.77 837 24.72 7.9 46.2 34 -6.9 19.6 0 0
01:14 1008 29.77 837 24.72 7.6 45.6 36 -6.4 20.4 0 0
01:15 1008 29.77 837 24.72 7.1 44.8 37 -6.5 20.4 0 0
01:16 1008 29.77 837 24.72 6.8 44.3 38 -6.4 20.4 0 0
01:17 1008 29.77 837 24.72 6.8 44.2 37 -7 19.4 0 0
01:18 1008 29.77 837 24.72 7 44.7 35 -7.3 18.9 0 0
01:19 1008 29.77 837 24.72 7.2 45 33 -7.9 17.8 0 0
01:20 1008 29.77 837 24.72 7.6 45.6 34 -7.2 19 0 0
01:21 1008 29.77 837 24.72 7.8 46 32 -7.9 17.9 0 0
01:22 1008 29.77 837 24.72 8.1 46.5 32 -7.5 18.5 0 0
01:23 1008 29.77 837 24.72 8.1 46.6 31 -7.9 17.8 0 0
01:24 1008 29.77 837 24.72 8.1 46.6 32 -7.6 18.3 0 0
01:25 1008 29.77 837 24.72 8.1 46.5 33 -7.3 18.8 0 0
01:26 1008 29.77 837 24.72 7.9 46.3 34 -7.1 19.3 0 0
01:27 1008 29.77 837 24.72 7.7 45.9 35 -6.9 19.7 0 0
01:28 1008 29.77 837 24.72 7.4 45.4 36 -6.7 19.9 0 0
01:29 1008 29.77 837 24.72 7.2 44.9 37 -6.5 20.3 0 0
01:30 1008 29.77 837 24.72 6.9 44.4 37 -6.8 19.8 0 0
01:31 1008 29.77 837 24.72 6.8 44.3 37 -6.8 19.7 0 0
01:32 1008 29.77 837 24.72 6.7 44.1 38 -6.5 20.3 0 0
01:33 1008 29.77 837 24.72 6.7 44 38 -6.5 20.3 0 0
01:34 1008 29.77 837 24.72 6.5 43.8 37 -7.2 19.1 0 0
01:35 1008 29.77 837 24.72 6.7 44 37 -7.1 19.2 0 0
01:36 1008 29.77 837 24.72 6.7 44.1 37 -7.1 19.3 0 0
01:37 1008 29.77 837 24.72 7 44.6 34 -7.7 18.1 0 0
01:38 1008 29.77 837 24.72 7.3 45.1 34 -7.4 18.7 0 0
01:39 1008 29.77 837 24.72 7.3 45.2 36 -6.9 19.5 0 0
01:40 1008 29.77 837 24.72 7.2 45 33 -7.8 17.9 0 0
01:41 1008 29.77 837 24.72 7.3 45.1 33 -7.8 18 0 0
01:42 1008 29.77 837 24.72 7.5 45.4 34 -7.3 18.9 0 0
01:43 1008 29.77 837 24.72 7.5 45.5 35 -7 19.4 0 0
01:44 1008 29.77 837 24.72 7.3 45.2 37 -6.3 20.6 0 0
01:45 1008 29.77 837 24.72 7 44.6 39 -6.1 21.1 0 0
01:46 1008 29.77 837 24.72 6.6 43.9 36 -7.2 19 0 0
01:47 1008 29.77 837 24.72 6.7 44.1 37 -7.1 19.2 0 0
01:48 1008 29.77 837 24.72 6.9 44.4 37 -6.8 19.7 0 0
01:49 1008 29.77 837 24.72 6.9 44.4 36 -7 19.4 0 0
01:50 1008 29.77 837 24.72 6.8 44.3 37 -7 19.4 0 0
01:51 1008 29.77 837 24.72 7.1 44.7 34 -7.6 18.2 0 0
01:52 1008 29.77 837 24.72 7.5 45.5 34 -7.2 19.1 0 0
01:53 1008 29.77 837 24.72 7.5 45.6 35 -7 19.3 0 0
01:54 1008 29.77 837 24.72 7.5 45.5 33 -7.7 18.2 0 0
01:55 1008 29.77 837 24.72 7.6 45.6 34 -7.4 18.6 0 0
01:56 1008 29.77 837 24.72 7.5 45.6 36 -6.7 19.9 0 0
01:57 1008 29.77 837 24.72 7.3 45.2 35 -7.1 19.2 0 0
01:58 1008 29.77 837 24.72 7.2 45 36 -6.9 19.6 0 0
01:59 1008 29.77 837 24.72 7.2 44.9 36 -7 19.4 0 0
02:00 1008 29.77 837 24.72 7.1 44.7 37 -6.7 19.9 0 0
02:01 1008 29.77 837 24.72 7 44.5 33 -8.1 17.4 0 0
02:02 1008 29.77 837 24.72 7.2 44.9 34 -7.6 18.3 0 0
02:03 1008 29.77 837 24.72 7.3 45.2 33 -7.9 17.8 0 0
02:04 1007 29.74 837 24.72 7.5 45.6 32 -7.9 17.7 0 0
02:05 1007 29.74 837 24.72 7.7 45.9 32 -8 17.6 0 0
02:06 1007 29.74 837 24.72 8 46.5 32 -7.9 17.8 0 0
02:07 1008 29.77 837 24.72 8.1 46.6 32 -7.8 18 0 0
02:08 1008 29.77 837 24.72 8 46.5 32 -7.8 17.9 0 0
02:09 1007 29.74 837 24.72 7.9 46.1 32 -7.7 18.1 0 0
02:10 1007 29.74 837 24.72 8 46.4 33 -7.5 18.5 0 0
02:11 1007 29.74 837 24.72 8 46.4 32 -7.8 17.9 0 0
02:12 1007 29.74 837 24.72 8.1 46.5 32 -7.8 17.9 0 0
02:13 1007 29.74 837 24.72 7.9 46.3 33 -7.3 18.8 0 0
02:14 1007 29.74 837 24.72 7.7 45.8 34 -7.2 19 0 0
02:15 1007 29.74 837 24.72 7.6 45.7 34 -7.2 19 0 0
02:16 1007 29.74 837 24.72 7.6 45.6 35 -6.8 19.7 0 0
02:17 1007 29.74 837 24.72 7.3 45.2 36 -6.8 19.7 0 0
02:18 1007 29.74 837 24.72 7.3 45.1 33 -7.8 17.9 0 0
02:19 1007 29.74 837 24.72 7.5 45.6 33 -7.7 18.2 0 0
02:20 1007 29.74 837 24.72 7.9 46.1 33 -7.5 18.5 0 0
02:21 1007 29.74 837 24.72 7.8 46 32 -7.7 18.1 0 0
02:22 1007 29.74 837 24.72 8.1 46.6 32 -7.6 18.2 0 0
02:23 1007 29.74 836 24.69 8.3 46.9 31 -7.8 17.9 0 0
02:24 1007 29.74 836 24.69 8.5 47.2 33 -7 19.3 0 0
02:25 1007 29.74 836 24.69 8.3 46.9 31 -7.7 18.2 0 0
02:26 1007 29.74 836 24.69 8.5 47.2 30 -8.2 17.3 0 0
02:27 1007 29.74 836 24.69 8.9 48.1 29 -8.4 16.9 0 0
02:28 1007 29.74 836 24.69 9.4 48.9 29 -7.9 17.7 0 0
02:29 1007 29.74 836 24.69 9.3 48.8 30 -7.4 18.7 0 0
02:30 1007 29.74 836 24.69 8.9 48 30 -7.6 18.4 0 0
02:31 1007 29.74 836 24.69 8.6 47.4 31 -7.5 18.5 0 0
02:32 1007 29.74 836 24.69 8.4 47.2 32 -7.3 18.9 0 0
02:33 1007 29.74 836 24.69 8.3 47 33 -7 19.4 0 0
02:34 1007 29.74 836 24.69 8.2 46.7 33 -7 19.3 0 0
02:35 1007 29.74 836 24.69 8 46.3 35 -6.7 19.9 0 0
02:36 1007 29.74 836 24.69 7.8 46 33 -7.6 18.3 0 0
02:37 1007 29.74 836 24.69 8.1 46.6 34 -6.8 19.7 0 0
02:38 1007 29.74 836 24.69 8.2 46.7 33 -7.1 19.2 0 0
02:39 1007 29.74 836 24.69 8.2 46.7 33 -7.1 19.2 0 0
02:40 1007 29.74 836 24.69 8.2 46.7 35 -6.5 20.3 0 0
02:41 1007 29.74 836 24.69 8 46.3 35 -6.5 20.3 0 0
02:42 1007 29.74 836 24.69 7.7 45.9 37 -6.2 20.9 0 0
02:43 1007 29.74 836 24.69 7.5 45.5 36 -6.5 20.3 0 0
02:44 1007 29.74 836 24.69 7.5 45.5 33 -7.8 18 0 0
02:45 1007 29.74 836 24.69 8.1 46.7 33 -7.2 19 0 0
02:46 1007 29.74 836 24.69 8.4 47.2 33 -7 19.3 0 0
02:47 1007 29.74 836 24.69 8.5 47.2 33 -7 19.4 0 0
02:48 1007 29.74 836 24.69 8.3 47 33 -6.8 19.7 0 0
02:49 1007 29.74 836 24.69 8.1 46.6 34 -6.8 19.7 0 0
02:50 1007 29.74 836 24.69 8 46.3 35 -6.4 20.4 0 0
02:51 1007 29.74 836 24.69 7.7 45.9 36 -6.6 20.2 0 0
02:52 1007 29.74 836 24.69 7.6 45.6 34 -7.2 19 0 0
02:53 1007 29.74 836 24.69 7.6 45.8 34 -7.1 19.3 0 0
02:54 1007 29.74 836 24.69 7.9 46.2 33 -7.2 19 0 0
02:55 1007 29.74 836 24.69 8.2 46.8 33 -7.1 19.3 0 0
02:56 1007 29.74 836 24.69 8.4 47 34 -6.7 19.9 0 0
02:57 1007 29.74 836 24.69 8.4 47.1 33 -7.1 19.2 0 0
02:58 1007 29.74 836 24.69 8.3 47 34 -6.7 20 0 0
02:59 1007 29.74 836 24.69 8.1 46.7 34 -6.8 19.7 0 0
03:00 1007 29.74 836 24.69 8.1 46.6 34 -6.9 19.6 0 0
03:01 1007 29.74 836 24.69 8.1 46.5 35 -6.5 20.2 0 0
03:02 1007 29.74 836 24.69 7.9 46.2 35 -6.5 20.3 0 0
03:03 1007 29.74 836 24.69 7.8 46 35 -6.8 19.7 0 0
03:04 1007 29.74 836 24.69 7.8 46 35 -6.7 19.9 0 0
03:05 1007 29.74 836 24.69 7.7 45.9 33 -7.4 18.7 0 0
03:06 1007 29.74 836 24.69 7.9 46.2 34 -7.1 19.3 0 0
03:07 1007 29.74 836 24.69 8.1 46.6 34 -6.8 19.8 0 0
03:08 1007 29.74 836 24.69 8.1 46.6 35 -6.6 20.2 0 0
03:09 1007 29.74 836 24.69 8 46.3 35 -6.4 20.4 0 0
03:10 1007 29.74 836 24.69 7.9 46.2 33 -7.3 18.9 0 0
03:11 1007 29.74 836 24.69 8.2 46.8 33 -7.3 18.9 0 0
03:12 1007 29.74 836 24.69 8.5 47.4 32 -7.2 19.1 0 0
03:13 1007 29.74 836 24.69 8.7 47.7 32 -6.9 19.5 0 0
03:14 1007 29.74 836 24.69 8.7 47.7 32 -7.1 19.2 0 0
03:15 1007 29.74 836 24.69 8.7 47.7 33 -6.7 19.9 0 0
03:16 1007 29.74 836 24.69 8.6 47.6 32 -7 19.4 0 0
03:17 1007 29.74 836 24.69 8.9 47.9 32 -7 19.4 0 0
03:18 1007 29.74 836 24.69 8.9 48 31 -7.3 18.8 0 0
03:19 1007 29.74 836 24.69 9 48.2 31 -7.3 18.9 0 0
03:20 1007 29.74 836 24.69 9 48.1 32 -6.9 19.5 0 0
03:21 1007 29.74 836 24.69 8.9 47.9 32 -7 19.4 0 0
03:22 1007 29.74 836 24.69 8.9 48 32 -6.9 19.6 0 0
03:23 1007 29.74 836 24.69 8.9 48 32 -6.8 19.8 0 0
03:24 1007 29.74 836 24.69 8.8 47.8 31 -7.3 18.8 0 0
03:25 1007 29.74 836 24.69 8.9 48.1 31 -7.1 19.2 0 0
03:26 1007 29.74 836 24.69 9 48.1 32 -6.9 19.6 0 0
03:27 1007 29.74 836 24.69 8.8 47.8 33 -6.7 20 0 0
03:28 1007 29.74 836 24.69 8.5 47.4 33 -6.8 19.7 0 0
03:29 1007 29.74 836 24.69 8.4 47.1 34 -6.5 20.3 0 0
03:30 1007 29.74 836 24.69 8.2 46.8 35 -6.5 20.3 0 0
03:31 1007 29.74 836 24.69 8.2 46.7 34 -6.6 20.1 0 0
03:32 1007 29.74 836 24.69 8.3 47 32 -7.3 18.9 0 0
03:33 1007 29.74 836 24.69 8.6 47.4 31 -7.7 18.1 0 0
03:34 1007 29.74 836 24.69 8.9 48.1 32 -7.1 19.3 0 0
03:35 1007 29.74 836 24.69 9 48.1 32 -6.8 19.8 0 0
03:36 1007 29.74 836 24.69 8.9 48.1 32 -6.9 19.6 0 0
03:37 1007 29.74 836 24.69 8.9 48.1 32 -7 19.4 0 0
03:38 1007 29.74 836 24.69 8.9 47.9 32 -7.1 19.2 0 0
03:39 1007 29.74 836 24.69 8.9 48.1 32 -7 19.5 0 0
03:40 1006 29.71 836 24.69 8.9 48.1 33 -6.6 20 0 0
03:41 1006 29.71 836 24.69 8.9 47.9 32 -6.8 19.8 0 0
03:42 1006 29.71 836 24.69 8.8 47.8 33 -6.6 20.2 0 0
03:43 1006 29.71 836 24.69 8.7 47.6 33 -6.6 20.2 0 0
03:44 1006 29.71 836 24.69 8.6 47.4 34 -6.3 20.7 0 0
03:45 1006 29.71 836 24.69 8.4 47.1 34 -6.4 20.6 0 0
03:46 1006 29.71 836 24.69 8.5 47.3 33 -6.9 19.5 0 0
03:47 1006 29.71 835 24.66 8.7 47.6 33 -6.6 20.2 0 0
03:48 1006 29.71 836 24.69 8.7 47.6 34 -6.4 20.4 0 0
03:49 1006 29.71 835 24.66 8.6 47.4 33 -6.6 20 0 0
03:50 1006 29.71 835 24.66 8.5 47.2 34 -6.4 20.5 0 0
03:51 1006 29.71 835 24.66 8.4 47.1 34 -6.4 20.5 0 0
03:52 1006 29.71 835 24.66 8.4 47.1 34 -6.7 19.9 0 0
03:53 1006 29.71 835 24.66 8.5 47.3 35 -6.2 20.9 0 0
03:54 1006 29.71 835 24.66 8.5 47.2 34 -6.4 20.6 0 0
03:55 1006 29.71 835 24.66 8.4 47.1 34 -6.5 20.4 0 0
03:56 1006 29.71 835 24.66 8.4 47 35 -6.2 20.8 0 0
03:57 1006 29.71 835 24.66 8.3 46.9 35 -6.3 20.6 0 0
03:58 1006 29.71 835 24.66 8.3 46.9 35 -6.3 20.6 0 0
03:59 1006 29.71 835 24.66 8.3 46.9 34 -6.5 20.3 0 0
04:00 1006 29.71 835 24.66 8.3 46.9 35 -6.2 20.9 0 0
04:01 1006 29.71 835 24.66 8.1 46.6 36 -6.2 20.9 0 0
04:02 1006 29.71 835 24.66 8.2 46.8 35 -6.3 20.7 0 0
04:03 1006 29.71 835 24.66 8.3 46.9 35 -6.3 20.7 0 0
04:04 1006 29.71 835 24.66 8.3 46.9 34 -6.7 20 0 0
04:05 1006 29.71 835 24.66 8.5 47.2 34 -6.3 20.6 0 0
04:06 1006 29.71 835 24.66 8.4 47.2 34 -6.5 20.3 0 0
04:07 1006 29.71 835 24.66 8.4 47.2 34 -6.6 20.1 0 0
04:08 1006 29.71 835 24.66 8.4 47.2 34 -6.3 20.6 0 0
04:09 1006 29.71 835 24.66 8.4 47.2 34 -6.4 20.5 0 0
04:10 1006 29.71 835 24.66 8.5 47.4 34 -6.5 20.3 0 0
04:11 1006 29.71 835 24.66 8.6 47.4 34 -6.5 20.4 0 0
04:12 1006 29.71 835 24.66 8.6 47.4 33 -7 19.4 0 0
04:13 1006 29.71 835 24.66 8.8 47.9 33 -6.5 20.3 0 0
04:14 1006 29.71 835 24.66 8.8 47.9 33 -6.6 20.1 0 0
04:15 1006 29.71 835 24.66 9 48.1 33 -6.6 20.2 0 0
04:16 1006 29.71 835 24.66 9 48.3 33 -6.2 20.8 0 0
04:17 1006 29.71 835 24.66 8.9 48 33 -6.6 20.1 0 0
04:18 1006 29.71 835 24.66 8.9 47.9 33 -6.5 20.2 0 0
04:19 1006 29.71 835 24.66 8.7 47.7 33 -6.8 19.8 0 0
04:20 1006 29.71 835 24.66 8.6 47.5 33 -6.6 20.2 0 0
04:21 1006 29.71 835 24.66 8.7 47.7 32 -7.1 19.2 0 0
04:22 1006 29.71 835 24.66 9 48.2 32 -6.6 20.1 0 0
04:23 1006 29.71 835 24.66 9.1 48.3 32 -6.8 19.8 0 0
04:24 1006 29.71 835 24.66 9.3 48.7 30 -7.5 18.5 0 0
04:25 1006 29.71 835 24.66 9.6 49.3 30 -7 19.5 0 0
04:26 1006 29.71 835 24.66 9.7 49.5 32 -6.2 20.8 0 0
04:27 1006 29.71 835 24.66 9.5 49 32 -6.3 20.7 0 0
04:28 1006 29.71 835 24.66 9.1 48.3 33 -6.4 20.5 0 0
04:29 1006 29.71 835 24.66 8.9 48 33 -6.4 20.5 0 0
04:30 1006 29.71 835 24.66 8.6 47.5 35 -5.8 21.5 0 0
04:31 1006 29.71 835 24.66 8.3 46.9 35 -6.2 20.8 0 0
04:32 1006 29.71 835 24.66 8.4 47.2 34 -6.4 20.5 0 0
04:33 1006 29.71 835 24.66 8.6 47.5 35 -6 21.1 0 0
04:34 1006 29.71 835 24.66 8.5 47.4 35 -6 21.2 0 0
04:35 1006 29.71 835 24.66 8.4 47.1 35 -6 21.1 0 0
04:36 1006 29.71 835 24.66 8.3 46.9 36 -5.8 21.6 0 0
04:37 1006 29.71 835 24.66 8.1 46.6 37 -5.7 21.8 0 0
04:38 1006 29.71 835 24.66 8.1 46.5 34 -6.7 19.9 0 0
04:39 1006 29.71 835 24.66 8.4 47.1 34 -6.7 20 0 0
04:40 1006 29.71 835 24.66 8.7 47.6 33 -6.6 20.2 0 0
04:41 1006 29.71 835 24.66 8.7 47.7 33 -6.5 20.3 0 0
04:42 1006 29.71 835 24.66 8.8 47.9 34 -6.3 20.7 0 0
04:43 1006 29.71 835 24.66 8.8 47.9 35 -5.9 21.3 0 0
04:44 1006 29.71 835 24.66 8.6 47.4 35 -6 21.1 0 0
04:45 1006 29.71 835 24.66 8.5 47.3 35 -6 21.2 0 0
04:46 1005 29.68 835 24.66 8.6 47.5 34 -6.5 20.3 0 0
04:47 1005 29.68 835 24.66 8.9 48 32 -6.8 19.7 0 0
04:48 1005 29.68 835 24.66 9 48.3 33 -6.3 20.6 0 0
04:49 1005 29.68 835 24.66 9 48.1 33 -6.4 20.5 0 0
04:50 1005 29.68 835 24.66 8.8 47.9 34 -6.3 20.6 0 0
04:51 1005 29.68 835 24.66 8.8 47.8 33 -6.5 20.4 0 0
04:52 1005 29.68 835 24.66 8.8 47.8 33 -6.5 20.4 0 0
04:53 1005 29.68 835 24.66 8.8 47.8 34 -6.1 21.1 0 0
04:54 1005 29.68 835 24.66 8.7 47.7 35 -5.8 21.6 0 0
04:55 1005 29.68 835 24.66 8.7 47.6 34 -6.2 20.9 0 0
04:56 1005 29.68 834 24.63 8.8 47.9 33 -6.4 20.5 0 0
04:57 1005 29.68 834 24.63 9 48.1 33 -6.6 20.1 0 0
04:58 1005 29.68 835 24.66 9.1 48.4 33 -6.2 20.8 0 0
04:59 1005 29.68 835 24.66 9.1 48.3 33 -6.4 20.4 0 0
05:00 1005 29.68 835 24.66 9.2 48.6 33 -6.2 20.9 0 0
05:01 1005 29.68 835 24.66 9.1 48.4 32 -6.6 20.2 0 0
05:02 1005 29.68 835 24.66 9.1 48.4 33 -6.2 20.9 0 0
05:03 1005 29.68 835 24.66 8.9 48 35 -5.7 21.7 0 0
05:04 1005 29.68 835 24.66 8.6 47.5 36 -5.5 22.1 0 0
05:05 1005 29.68 835 24.66 8.3 46.9 36 -5.9 21.3 0 0
05:06 1005 29.68 835 24.66 8.2 46.8 37 -5.8 21.6 0 0
05:07 1005 29.68 835 24.66 8.1 46.5 37 -5.7 21.7 0 0
05:08 1005 29.68 835 24.66 8 46.4 36 -6.2 20.8 0 0
05:09 1005 29.68 835 24.66 8.2 46.7 36 -6.1 21 0 0
05:10 1005 29.68 835 24.66 8.3 46.9 35 -6.3 20.7 0 0
05:11 1005 29.68 835 24.66 8.5 47.3 35 -6 21.2 0 0
05:12 1005 29.68 835 24.66 8.5 47.2 36 -5.8 21.6 0 0
05:13 1006 29.71 835 24.66 8.3 46.9 36 -5.7 21.7 0 0
05:14 1006 29.71 835 24.66 8 46.4 37 -5.9 21.3 0 0
05:15 1005 29.68 835 24.66 8.1 46.7 35 -6.4 20.5 0 0
05:16 1005 29.68 835 24.66 8.4 47.2 35 -6.2 20.8 0 0
05:17 1005 29.68 835 24.66 8.5 47.4 35 -6.2 20.8 0 0
05:18 1005 29.68 835 24.66 8.6 47.5 35 -5.8 21.5 0 0
05:19 1005 29.68 835 24.66 8.4 47.2 36 -5.6 21.9 0 0
05:20 1005 29.68 835 24.66 8.5 47.4 34 -6.5 20.3 0 0
05:21 1005 29.68 835 24.66 9 48.1 33 -6.4 20.5 0 0
05:22 1005 29.68 835 24.66 9.1 48.5 34 -6 21.2 0 0
05:23 1005 29.68 835 24.66 9 48.3 33 -6.3 20.6 0 0
05:24 1005 29.68 835 24.66 9.1 48.3 33 -6.3 20.7 0 0
05:25 1005 29.68 834 24.63 9.2 48.6 33 -6.1 21 0 0
05:26 1005 29.68 835 24.66 9.2 48.5 35 -5.6 21.9 0 0
05:27 1005 29.68 834 24.63 9 48.3 33 -6.2 20.9 0 0
05:28 1005 29.68 835 24.66 9 48.1 34 -6.2 20.9 0 0
05:29 1005 29.68 835 24.66 8.9 48 35 -5.9 21.5 0 0
05:30 1005 29.68 834 24.63 8.9 48 34 -6 21.2 0 0
05:31 1005 29.68 835 24.66 8.9 48.1 34 -6 21.2 0 0
05:32 1005 29.68 835 24.66 8.9 48.1 34 -6.2 20.8 0 0
05:33 1005 29.68 835 24.66 9 48.1 35 -5.5 22 0 0
05:34 1005 29.68 835 24.66 8.7 47.6 35 -5.8 21.6 0 0
05:35 1005 29.68 835 24.66 8.6 47.4 36 -5.8 21.5 0 0
05:36 1005 29.68 835 24.66 8.5 47.4 37 -5.5 22.2 0 0
05:37 1005 29.68 835 24.66 8.4 47.1 37 -5.5 22.1 0 0
05:38 1005 29.68 835 24.66 8.4 47.1 35 -6.1 21.1 0 0
05:39 1005 29.68 835 24.66 8.5 47.3 36 -5.9 21.4 0 0
05:40 1005 29.68 835 24.66 8.6 47.4 36 -5.8 21.6 0 0
05:41 1005 29.68 834 24.63 8.5 47.3 36 -5.8 21.6 0 0
05:42 1005 29.68 834 24.63 8.5 47.3 36 -5.7 21.7 0 0
05:43 1005 29.68 834 24.63 8.5 47.4 35 -6 21.2 0 0
05:44 1005 29.68 834 24.63 8.6 47.5 37 -5.2 22.6 0 0
05:45 1005 29.68 834 24.63 8.5 47.2 38 -5.2 22.7 0 0
05:46 1005 29.68 834 24.63 8.3 47 38 -5.3 22.5 0 0
05:47 1005 29.68 834 24.63 8.3 46.9 35 -6.1 21 0 0
05:48 1005 29.68 834 24.63 8.5 47.3 36 -5.7 21.7 0 0
05:49 1005 29.68 834 24.63 8.6 47.5 36 -5.5 22.1 0 0
05:50 1005 29.68 834 24.63 8.5 47.3 36 -5.5 22 0 0
05:51 1005 29.68 834 24.63 8.4 47.2 35 -6 21.1 0 0
05:52 1005 29.68 834 24.63 8.6 47.6 36 -5.7 21.7 0 0
05:53 1005 29.68 834 24.63 8.7 47.6 37 -5.3 22.4 0 0
05:54 1005 29.68 834 24.63 8.5 47.3 36 -5.6 21.9 0 0
05:55 1005 29.68 834 24.63 8.5 47.3 36 -5.8 21.5 0 0
05:56 1005 29.68 834 24.63 8.6 47.4 33 -6.8 19.7 0 0
05:57 1005 29.68 834 24.63 8.8 47.9 35 -5.9 21.5 0 0
05:58 1005 29.68 834 24.63 8.7 47.6 35 -6.1 21 0 0
05:59 1005 29.68 834 24.63 8.6 47.5 36 -5.8 21.6 0 0
06:00 1005 29.68 834 24.63 8.4 47.2 36 -5.7 21.8 0 0
06:01 1005 29.68 834 24.63 8.3 46.9 36 -6 21.3 0 0
06:02 1005 29.68 834 24.63 8.2 46.8 37 -5.6 21.9 0 0
06:03 1005 29.68 834 24.63 8.1 46.5 37 -5.8 21.6 0 0
06:04 1005 29.68 835 24.66 8 46.4 38 -5.6 21.9 0 0
06:05 1005 29.68 834 24.63 8.1 46.6 34 -6.7 20 0 0
06:06 1005 29.68 834 24.63 8.7 47.7 33 -6.8 19.7 0 0
06:07 1005 29.68 835 24.66 8.9 48 35 -5.8 21.6 0 0
06:08 1005 29.68 834 24.63 8.7 47.7 34 -6.2 20.9 0 0
06:09 1005 29.68 834 24.63 8.7 47.7 33 -6.7 19.9 0 0
06:10 1005 29.68 835 24.66 8.9 48 34 -6 21.2 0 0
06:11 1005 29.68 835 24.66 8.8 47.9 35 -5.8 21.6 0 0
06:12 1005 29.68 835 24.66 8.6 47.4 36 -5.5 22 0 0
06:13 1005 29.68 835 24.66 8.2 46.8 37 -5.7 21.8 0 0
06:14 1005 29.68 835 24.66 8 46.3 38 -5.5 22.1 0 0
06:15 1005 29.68 835 24.66 7.7 45.9 38 -5.6 22 0 0
06:16 1005 29.68 835 24.66 7.5 45.5 40 -5.3 22.5 0 0
06:17 1005 29.68 835 24.66 7.3 45.1 39 -5.7 21.7 0 0
06:18 1005 29.68 835 24.66 7.6 45.7 35 -6.7 19.9 0 0
06:19 1005 29.68 835 24.66 8.3 46.9 34 -6.7 19.9 0 0
06:20 1005 29.68 835 24.66 8.5 47.4 36 -5.8 21.5 0 0
06:21 1005 29.68 835 24.66 8.3 47 36 -5.7 21.7 0 0
06:22 1005 29.68 835 24.66 8.2 46.7 35 -6.2 20.9 0 0
06:23 1005 29.68 835 24.66 8.4 47 35 -6.1 21 0 0
06:24 1005 29.68 835 24.66 8.5 47.4 34 -6.5 20.3 0 0
06:25 1005 29.68 835 24.66 8.6 47.5 34 -6.3 20.6 0 0
06:26 1005 29.68 835 24.66 8.7 47.6 35 -5.9 21.4 0 0
06:27 1005 29.68 835 24.66 8.6 47.5 35 -5.9 21.4 0 0
06:28 1005 29.68 835 24.66 8.6 47.4 34 -6.3 20.7 0 0
06:29 1005 29.68 834 24.63 8.8 47.8 32 -6.9 19.5 0 0
06:30 1005 29.68 835 24.66 9.1 48.4 33 -6.3 20.7 0 0
06:31 1005 29.68 835 24.66 9.1 48.3 33 -6.3 20.7 0 0
06:32 1005 29.68 835 24.66 8.9 48.1 33 -6.3 20.6 0 0
06:33 1005 29.68 835 24.66 8.8 47.8 34 -6.2 20.9 0 0
06:34 1005 29.68 834 24.63 8.6 47.5 35 -6.1 21.1 0 0
06:35 1005 29.68 835 24.66 8.4 47 36 -5.9 21.4 0 0
06:36 1005 29.68 834 24.63 8 46.4 35 -6.5 20.3 0 0
06:37 1005 29.68 834 24.63 8 46.5 33 -7.1 19.2 0 0
06:38 1005 29.68 834 24.63 8.5 47.3 33 -6.7 19.9 0 0
06:39 1005 29.68 834 24.63 8.6 47.4 34 -6.3 20.6 0 0
06:40 1005 29.68 834 24.63 8.3 47 36 -5.8 21.6 0 0
06:41 1005 29.68 834 24.63 7.9 46.2 38 -5.5 22 0 0
06:42 1005 29.68 834 24.63 7.6 45.7 36 -6.6 20 0 0
06:43 1005 29.68 834 24.63 7.9 46.2 36 -6.2 20.8 0 0
06:44 1005 29.68 834 24.63 8 46.4 37 -5.9 21.5 0 0
06:45 1005 29.68 834 24.63 8.2 46.7 34 -6.6 20.1 0 0
06:46 1005 29.68 834 24.63 8.7 47.6 33 -6.7 20 0 0
06:47 1005 29.68 834 24.63 9 48.2 34 -5.9 21.4 0 0
06:48 1005 29.68 834 24.63 8.8 47.9 34 -6.1 21.1 0 0
06:49 1005 29.68 834 24.63 8.8 47.9 33 -6.5 20.3 0 0
06:50 1005 29.68 834 24.63 8.8 47.9 36 -5.5 22.1 0 0
06:51 1005 29.68 834 24.63 8.5 47.3 36 -5.9 21.4 0 0
06:52 1005 29.68 834 24.63 8.3 47 36 -5.9 21.4 0 0
06:53 1005 29.68 834 24.63 8.2 46.8 36 -5.9 21.4 0 0
06:54 1005 29.68 834 24.63 8.2 46.7 37 -5.6 21.9 0 0
06:55 1005 29.68 834 24.63 8.1 46.5 37 -5.6 21.9 0 0
06:56 1005 29.68 834 24.63 7.9 46.1 38 -5.5 22.1 0 0
06:57 1005 29.68 834 24.63 7.6 45.7 38 -5.6 21.8 0 0
06:58 1005 29.68 834 24.63 7.5 45.5 39 -5.6 21.9 0 0
06:59 1005 29.68 834 24.63 7.7 45.8 36 -6.6 20.2 0 0
07:00 1005 29.68 834 24.63 8.2 46.8 35 -6.3 20.7 0 0
07:01 1005 29.68 834 24.63 8.6 47.5 33 -6.9 19.6 0 0
07:02 1005 29.68 834 24.63 8.9 48 33 -6.4 20.5 0 0
07:03 1005 29.68 834 24.63 9 48.1 33 -6.4 20.6 0 0
07:04 1005 29.68 834 24.63 9.1 48.3 33 -6.5 20.3 0 0
07:05 1005 29.68 834 24.63 9.1 48.4 34 -5.9 21.4 0 0
07:06 1005 29.68 834 24.63 8.9 48 35 -5.8 21.6 0 0
07:07 1005 29.68 834 24.63 8.7 47.6 33 -6.9 19.6 0 0
07:08 1005 29.68 834 24.63 8.9 48.1 33 -6.4 20.5 0 0
07:09 1005 29.68 834 24.63 9.1 48.4 33 -6.2 20.8 0 0
07:10 1005 29.68 834 24.63 9.2 48.5 32 -6.8 19.8 0 0
07:11 1005 29.68 834 24.63 9.4 48.9 32 -6.3 20.7 0 0
07:12 1005 29.68 834 24.63 9.3 48.7 33 -6.2 20.8 0 0
07:13 1005 29.68 834 24.63 9.1 48.3 33 -6.4 20.4 0 0
07:14 1005 29.68 834 24.63 9 48.2 34 -6 21.2 0 0
07:15 1005 29.68 834 24.63 8.8 47.8 35 -5.7 21.7 0 0
07:16 1005 29.68 834 24.63 8.5 47.3 35 -6.2 20.9 0 0
07:17 1005 29.68 834 24.63 8.5 47.2 36 -5.9 21.4 0 0
07:18 1005 29.68 834 24.63 8.5 47.3 36 -5.8 21.5 0 0
07:19 1005 29.68 834 24.63 8.3 47 35 -6.1 21 0 0
07:20 1005 29.68 834 24.63 8.5 47.3 33 -6.7 19.9 0 0
07:21 1005 29.68 834 24.63 8.8 47.9 33 -6.6 20.1 0 0
07:22 1005 29.68 834 24.63 8.8 47.9 33 -6.7 19.9 0 0
07:23 1005 29.68 834 24.63 9 48.1 32 -7 19.4 0 0
07:24 1005 29.68 834 24.63 9.3 48.8 32 -6.4 20.6 0 0
07:25 1005 29.68 834 24.63 9.4 48.9 32 -6.7 20 0 0
07:26 1005 29.68 834 24.63 9.6 49.3 31 -6.7 19.9 0 0
07:27 1005 29.68 834 24.63 9.8 49.6 30 -6.9 19.6 0 0
07:28 1005 29.68 834 24.63 9.9 49.7 31 -6.4 20.4 0 0
07:29 1005 29.68 834 24.63 9.8 49.6 31 -6.4 20.5 0 0
07:30 1005 29.68 834 24.63 9.7 49.4 32 -6.4 20.5 0 0
07:31 1005 29.68 834 24.63 9.7 49.5 30 -7 19.5 0 0
07:32 1005 29.68 834 24.63 9.9 49.8 31 -6.6 20.1 0 0
07:33 1005 29.68 834 24.63 9.8 49.6 31 -6.4 20.5 0 0
07:34 1005 29.68 834 24.63 9.6 49.2 32 -6.3 20.7 0 0
07:35 1005 29.68 834 24.63 9.3 48.8 34 -5.8 21.6 0 0
07:36 1005 29.68 834 24.63 9 48.2 35 -5.5 22.1 0 0
07:37 1005 29.68 834 24.63 8.7 47.6 36 -5.5 22.1 0 0
07:38 1005 29.68 834 24.63 8.5 47.2 37 -5.6 22 0 0
07:39 1005 29.68 834 24.63 8.3 46.9 36 -5.7 21.7 0 0
07:40 1005 29.68 834 24.63 8.3 46.9 36 -5.8 21.6 0 0
07:41 1005 29.68 834 24.63 8.3 46.9 37 -5.5 22 0 0
07:42 1005 29.68 834 24.63 8.4 47.1 33 -7.1 19.3 0 0
07:43 1005 29.68 834 24.63 8.9 48 34 -6 21.1 0 0
07:44 1005 29.68 834 24.63 8.8 47.9 35 -5.9 21.4 0 0
07:45 1005 29.68 834 24.63 8.7 47.6 35 -5.9 21.4 0 0
07:46 1005 29.68 834 24.63 8.7 47.6 34 -6.5 20.3 0 0
07:47 1005 29.68 834 24.63 9 48.2 34 -6.2 20.8 0 0
07:48 1005 29.68 834 24.63 9.1 48.5 33 -6.2 20.9 0 0
07:49 1005 29.68 834 24.63 9.3 48.7 32 -6.4 20.5 0 0
07:50 1005 29.68 834 24.63 9.4 48.9 32 -6.4 20.4 0 0
07:51 1005 29.68 834 24.63 9.5 49 31 -6.7 20 0 0
07:52 1005 29.68 834 24.63 9.4 49 31 -7 19.4 0 0
07:53 1005 29.68 834 24.63 9.5 49 32 -6.5 20.4 0 0
07:54 1005 29.68 834 24.63 9.5 49 33 -6 21.3 0 0
07:55 1005 29.68 834 24.63 9.3 48.7 34 -5.7 21.7 0 0
07:56 1005 29.68 834 24.63 9 48.1 32 -6.7 19.9 0 0
07:57 1005 29.68 834 24.63 9.1 48.3 33 -6.2 20.8 0 0
07:58 1005 29.68 834 24.63 9.1 48.4 33 -6.5 20.3 0 0
07:59 1005 29.68 834 24.63 9.4 48.8 31 -6.7 19.9 0 0
08:00 1005 29.68 834 24.63 9.6 49.3 32 -6.2 20.9 0 0
08:01 1005 29.68 834 24.63 9.4 48.9 32 -6.3 20.7 0 0
08:02 1005 29.68 834 24.63 9.1 48.4 33 -6.4 20.4 0 0
08:03 1005 29.68 834 24.63 9 48.2 33 -6.5 20.3 0 0
08:04 1005 29.68 834 24.63 9.1 48.3 31 -7.1 19.3 0 0
08:05 1005 29.68 834 24.63 9.4 48.9 32 -6.4 20.6 0 0
08:06 1005 29.68 834 24.63 9.2 48.6 34 -5.9 21.4 0 0
08:07 1005 29.68 834 24.63 9 48.2 32 -6.9 19.6 0 0
08:08 1005 29.68 834 24.63 9.1 48.4 33 -6.3 20.7 0 0
08:09 1005 29.68 834 24.63 9.1 48.3 34 -6 21.2 0 0
08:10 1005 29.68 834 24.63 8.8 47.9 34 -6.1 21.1 0 0
08:11 1005 29.68 834 24.63 8.8 47.8 32 -6.9 19.5 0 0
08:12 1005 29.68 834 24.63 9 48.2 34 -5.9 21.3 0 0
08:13 1005 29.68 834 24.63 8.8 47.9 35 -5.6 21.9 0 0
08:14 1005 29.68 834 24.63 8.6 47.5 36 -5.7 21.7 0 0
08:15 1005 29.68 834 24.63 8.4 47.2 33 -6.7 19.9 0 0
08:16 1005 29.68 834 24.63 8.8 47.8 32 -7 19.4 0 0
08:17 1005 29.68 834 24.63 9 48.2 34 -6 21.2 0 0
08:18 1005 29.68 834 24.63 8.9 48 33 -6.4 20.5 0 0
08:19 1005 29.68 834 24.63 8.8 47.9 35 -5.7 21.7 0 0
08:20 1005 29.68 834 24.63 8.7 47.6 37 -5.3 22.4 0 0
08:21 1005 29.68 834 24.63 8.6 47.5 34 -6.5 20.4 0 0
08:22 1005 29.68 834 24.63 9 48.3 30 -7.4 18.7 0 0
08:23 1005 29.68 834 24.63 9.5 49.1 32 -6.6 20.2 0 0
08:24 1005 29.68 834 24.63 9.5 49.2 31 -6.6 20 0 0
08:25 1005 29.68 834 24.63 9.5 49.1 32 -6.3 20.7 0 0
08:26 1005 29.68 834 24.63 9.5 49 33 -6 21.3 0 0
08:27 1005 29.68 834 24.63 9.4 49 33 -6.1 21 0 0
08:28 1005 29.68 834 24.63 9.5 49 32 -6.3 20.7 0 0
08:29 1005 29.68 834 24.63 9.5 49 33 -6 21.3 0 0
08:30 1005 29.68 834 24.63 9.5 49 32 -6.6 20.2 0 0
08:31 1005 29.68 834 24.63 9.5 49.2 33 -6.1 21 0 0
08:32 1005 29.68 834 24.63 9.5 49.1 32 -6.4 20.5 0 0
08:33 1005 29.68 834 24.63 9.5 49.1 32 -6.3 20.7 0 0
08:34 1005 29.68 834 24.63 9.5 49.1 32 -6.4 20.5 0 0
08:35 1005 29.68 834 24.63 9.5 49.2 32 -6.5 20.3 0 0
08:36 1005 29.68 834 24.63 9.6 49.2 33 -5.8 21.6 0 0
08:37 1005 29.68 834 24.63 9.5 49.1 32 -6.2 20.9 0 0
08:38 1005 29.68 834 24.63 9.5 49.1 32 -6.3 20.7 0 0
08:39 1005 29.68 834 24.63 9.5 49.1 32 -6.5 20.4 0 0
08:40 1005 29.68 834 24.63 9.6 49.2 32 -6.1 21 0 0
08:41 1005 29.68 834 24.63 9.5 49.2 32 -6.4 20.5 0 0
08:42 1005 29.68 834 24.63 9.5 49.1 32 -6.2 20.8 0 0
08:43 1005 29.68 834 24.63 9.5 49.2 33 -6 21.2 0 0
08:44 1005 29.68 834 24.63 9.4 49 33 -6.1 21 0 0
08:45 1005 29.68 834 24.63 9.3 48.8 33 -6.1 21 0 0
08:46 1005 29.68 834 24.63 9.3 48.8 33 -6.1 21.1 0 0
08:47 1005 29.68 834 24.63 9.3 48.8 34 -5.6 22 0 0
08:48 1005 29.68 834 24.63 9.3 48.8 33 -6.2 20.9 0 0
08:49 1005 29.68 834 24.63 9.4 48.9 33 -6.2 20.9 0 0
08:50 1005 29.68 834 24.63 9.4 49 32 -6.5 20.3 0 0
08:51 1005 29.68 834 24.63 9.6 49.2 31 -6.6 20.1 0 0
08:52 1005 29.68 834 24.63 9.7 49.4 32 -6.1 21.1 0 0
08:53 1005 29.68 834 24.63 9.7 49.5 32 -6.3 20.6 0 0
08:54 1005 29.68 834 24.63 9.8 49.6 32 -6.2 20.8 0 0
08:55 1005 29.68 834 24.63 9.9 49.8 31 -6.3 20.7 0 0
08:56 1005 29.68 834 24.63 9.9 49.8 32 -6 21.3 0 0
08:57 1005 29.68 834 24.63 9.8 49.6 33 -5.8 21.5 0 0
08:58 1005 29.68 834 24.63 9.8 49.6 32 -6 21.3 0 0
08:59 1005 29.68 834 24.63 9.7 49.5 33 -5.6 22 0 0
09:00 1005 29.68 834 24.63 9.7 49.5 33 -5.7 21.7 0 0
09:01 1005 29.68 834 24.63 9.7 49.5 33 -5.7 21.8 0 0
09:02 1005 29.68 834 24.63 9.7 49.5 33 -5.9 21.4 0 0
09:03 1005 29.68 834 24.63 9.8 49.7 32 -5.9 21.3 0 0
09:04 1005 29.68 834 24.63 9.9 49.8 33 -5.7 21.7 0 0
09:05 1005 29.68 834 24.63 9.9 49.8 33 -5.8 21.6 0 0
09:06 1005 29.68 834 24.63 9.9 49.9 32 -5.8 21.6 0 0
09:07 1005 29.68 834 24.63 10 50 33 -5.6 21.9 0 0
09:08 1005 29.68 834 24.63 10 50 31 -6.5 20.2 0 0
09:09 1005 29.68 834 24.63 10.1 50.1 32 -5.9 21.4 0 0
09:10 1005 29.68 834 24.63 10.1 50.2 30 -6.5 20.3 0 0
09:11 1005 29.68 834 24.63 10.2 50.4 31 -6 21.3 0 0
09:12 1005 29.68 834 24.63 10.3 50.5 30 -6.4 20.5 0 0
09:13 1005 29.68 834 24.63 10.3 50.6 31 -6.2 20.9 0 0
09:14 1005 29.68 834 24.63 10.4 50.7 30 -6.6 20.2 0 0
09:15 1005 29.68 834 24.63 10.5 50.8 31 -6 21.2 0 0
09:16 1005 29.68 834 24.63 10.5 50.9 30 -6.3 20.7 0 0
09:17 1005 29.68 834 24.63 10.5 50.9 29 -6.6 20.1 0 0
09:18 1005 29.68 834 24.63 10.6 51.1 30 -6.2 20.8 0 0
09:19 1005 29.68 834 24.63 10.6 51.2 30 -6.1 21.1 0 0
09:20 1005 29.68 834 24.63 10.7 51.3 30 -6.4 20.6 0 0
09:21 1005 29.68 834 24.63 10.7 51.3 31 -5.9 21.4 0 0
09:22 1005 29.68 834 24.63 10.7 51.3 32 -5.2 22.7 0 0
09:23 1005 29.68 834 24.63 10.7 51.3 30 -6 21.3 0 0
09:24 1005 29.68 834 24.63 10.7 51.3 32 -5.4 22.2 0 0
09:25 1005 29.68 834 24.63 10.7 51.3 31 -5.8 21.5 0 0
09:26 1005 29.68 834 24.63 10.8 51.4 29 -6.4 20.4 0 0
09:27 1005 29.68 834 24.63 10.8 51.5 31 -5.7 21.7 0 0
09:28 1005 29.68 834 24.63 10.9 51.6 31 -5.8 21.6 0 0
09:29 1005 29.68 834 24.63 10.9 51.5 31 -5.5 22.1 0 0
09:30 1005 29.68 834 24.63 10.8 51.5 29 -6.3 20.7 0 0
09:31 1005 29.68 834 24.63 10.8 51.5 30 -6.2 20.8 0 0
09:32 1005 29.68 834 24.63 10.9 51.6 31 -5.5 22 0 0
09:33 1005 29.68 834 24.63 10.8 51.4 30 -6 21.3 0 0
09:34 1005 29.68 834 24.63 10.6 51.1 31 -5.7 21.7 0 0
09:35 1005 29.68 834 24.63 10.4 50.8 32 -5.6 21.8 0 0
09:36 1005 29.68 834 24.63 10.2 50.4 32 -5.7 21.7 0 0
09:37 1005 29.68 834 24.63 10.1 50.2 31 -6.3 20.6 0 0
09:38 1005 29.68 834 24.63 10.1 50.2 31 -6.3 20.6 0 0
09:39 1005 29.68 834 24.63 10.3 50.5 32 -5.8 21.6 0 0
09:40 1005 29.68 834 24.63 10.3 50.6 32 -5.4 22.2 0 0
09:41 1005 29.68 834 24.63 10.2 50.3 31 -6 21.2 0 0
09:42 1005 29.68 834 24.63 10.2 50.3 30 -6.7 19.9 0 0
09:43 1005 29.68 834 24.63 10.4 50.7 30 -6.5 20.2 0 0
09:44 1005 29.68 834 24.63 10.6 51.1 30 -6.3 20.6 0 0
09:45 1005 29.68 834 24.63 10.7 51.3 31 -5.6 22 0 0
09:46 1005 29.68 834 24.63 10.8 51.4 30 -6 21.1 0 0
09:47 1005 29.68 834 24.63 10.8 51.5 31 -5.8 21.6 0 0
09:48 1005 29.68 834 24.63 10.9 51.7 31 -5.4 22.2 0 0
09:49 1005 29.68 834 24.63 11.1 51.9 32 -5.1 22.9 0 0
09:50 1005 29.68 834 24.63 11.1 52.1 31 -5.3 22.4 0 0
09:51 1005 29.68 834 24.63 11.3 52.3 32 -5 23 0 0
09:52 1005 29.68 834 24.63 11.4 52.5 29 -5.8 21.6 0 0
09:53 1005 29.68 834 24.63 11.5 52.7 31 -5 23 0 0
09:54 1005 29.68 834 24.63 11.5 52.7 29 -5.7 21.7 0 0
09:55 1005 29.68 834 24.63 11.5 52.8 29 -5.8 21.5 0 0
09:56 1005 29.68 834 24.63 11.6 52.8 28 -6.4 20.4 0 0
09:57 1005 29.68 834 24.63 11.6 52.8 30 -5.5 22.1 0 0
09:58 1005 29.68 834 24.63 11.7 53 29 -5.7 21.8 0 0
09:59 1005 29.68 834 24.63 11.6 52.9 28 -6 21.1 0 0
10:00 1005 29.68 834 24.63 11.6 52.9 29 -5.6 22 0 0
10:01 1005 29.68 834 24.63 11.6 52.9 30 -5.3 22.5 0 0
10:02 1005 29.68 834 24.63 11.7 53 28 -6.1 21.1 0 0
10:03 1005 29.68 834 24.63 11.7 53 27 -6.6 20.1 0 0
10:04 1005 29.68 834 24.63 11.7 53 28 -6.2 20.9 0 0
10:05 1005 29.68 834 24.63 11.6 52.9 29 -6 21.2 0 0
10:06 1005 29.68 834 24.63 11.6 52.9 29 -5.6 22 0 0
10:07 1005 29.68 834 24.63 11.6 52.9 28 -6.3 20.7 0 0
10:08 1005 29.68 834 24.63 11.7 53 30 -5.4 22.3 0 0
10:09 1005 29.68 834 24.63 11.8 53.2 28 -6 21.3 0 0
10:10 1005 29.68 834 24.63 11.9 53.4 28 -6.2 20.8 0 0
10:11 1004 29.65 834 24.63 11.8 53.3 27 -6.6 20 0 0
10:12 1005 29.68 834 24.63 11.7 53 30 -5.4 22.2 0 0
10:13 1005 29.68 834 24.63 11.7 53 29 -5.6 21.9 0 0
10:14 1005 29.68 834 24.63 11.7 53.1 30 -5.2 22.6 0 0
10:15 1005 29.68 834 24.63 11.8 53.2 28 -5.9 21.3 0 0
10:16 1004 29.65 834 24.63 11.7 53.1 30 -5.4 22.4 0 0
10:17 1004 29.65 834 24.63 11.7 53 27 -6.9 19.7 0 0
10:18 1004 29.65 834 24.63 11.6 52.9 28 -6.2 20.8 0 0
10:19 1004 29.65 834 24.63 11.6 52.8 28 -6.2 20.8 0 0
10:20 1004 29.65 834 24.63 11.5 52.7 28 -6.2 20.9 0 0
10:21 1004 29.65 834 24.63 11.4 52.6 27 -6.8 19.8 0 0
10:22 1004 29.65 834 24.63 11.4 52.5 29 -6.1 21 0 0
10:23 1004 29.65 834 24.63 11.3 52.4 28 -6.4 20.5 0 0
10:24 1004 29.65 834 24.63 11.3 52.3 30 -5.8 21.5 0 0
10:25 1004 29.65 834 24.63 11.2 52.2 30 -5.6 22 0 0
10:26 1004 29.65 834 24.63 11.2 52.1 31 -5.3 22.5 0 0
10:27 1004 29.65 834 24.63 11.1 52.1 29 -6 21.1 0 0
10:28 1004 29.65 834 24.63 11.1 51.9 29 -6.3 20.7 0 0
10:29 1004 29.65 834 24.63 11.1 51.9 30 -6 21.3 0 0
10:30 1004 29.65 834 24.63 11 51.9 29 -6.4 20.4 0 0
10:31 1004 29.65 834 24.63 11.1 51.9 31 -5.4 22.2 0 0
10:32 1004 29.65 834 24.63 11 51.9 31 -5.5 22.1 0 0
10:33 1004 29.65 834 24.63 11 51.8 30 -5.7 21.7 0 0
10:34 1004 29.65 834 24.63 11.1 51.9 31 -5.5 22.1 0 0
10:35 1004 29.65 834 24.63 11.1 51.9 31 -5.5 22.1 0 0
10:36 1004 29.65 834 24.63 11 51.7 31 -5.5 22.1 0 0
10:37 1004 29.65 834 24.63 11 51.7 28 -7 19.5 0 0
10:38 1004 29.65 834 24.63 11.1 51.9 30 -5.9 21.4 0 0
10:39 1004 29.65 834 24.63 11 51.8 28 -6.9 19.5 0 0
10:40 1004 29.65 834 24.63 11 51.8 30 -5.9 21.4 0 0
10:41 1004 29.65 834 24.63 11 51.8 31 -5.4 22.3 0 0
10:42 1004 29.65 834 24.63 10.9 51.6 32 -5 23 0 0
10:43 1004 29.65 834 24.63 10.9 51.5 28 -6.9 19.6 0 0
10:44 1005 29.68 834 24.63 10.9 51.7 30 -5.9 21.3 0 0
10:45 1004 29.65 834 24.63 10.9 51.7 31 -5.6 21.9 0 0
10:46 1004 29.65 834 24.63 11 51.8 32 -5 23 0 0
10:47 1004 29.65 834 24.63 11.3 52.3 30 -5.8 21.6 0 0
10:48 1004 29.65 834 24.63 11.6 52.9 29 -5.8 21.6 0 0
10:49 1004 29.65 834 24.63 11.7 53 30 -5.5 22.2 0 0
10:50 1004 29.65 834 24.63 11.7 53 33 -4.2 24.5 0 0
10:51 1004 29.65 834 24.63 11.7 53 30 -5.1 22.8 0 0
10:52 1004 29.65 834 24.63 11.8 53.3 32 -4.3 24.2 0 0
10:53 1004 29.65 833 24.6 11.9 53.5 26 -7 19.4 0 0
10:54 1004 29.65 833 24.6 12 53.6 27 -6.5 20.3 0 0
10:55 1004 29.65 833 24.6 12.1 53.8 27 -6.4 20.6 0 0
10:56 1004 29.65 834 24.63 12.2 53.9 28 -5.8 21.6 0 0
10:57 1004 29.65 834 24.63 12.3 54.1 28 -5.7 21.8 0 0
10:58 1004 29.65 834 24.63 12.4 54.3 28 -5.6 21.9 0 0
10:59 1004 29.65 834 24.63 12.5 54.6 28 -5.4 22.3 0 0
11:00 1004 29.65 834 24.63 12.6 54.6 29 -5 23 0 0
11:01 1004 29.65 834 24.63 12.4 54.3 28 -5.5 22.1 0 0
11:02 1004 29.65 834 24.63 12.3 54.2 29 -5.2 22.6 0 0
11:03 1004 29.65 834 24.63 12.3 54.2 28 -5.9 21.4 0 0
11:04 1004 29.65 833 24.6 12.4 54.4 27 -6 21.2 0 0
11:05 1004 29.65 833 24.6 12.5 54.4 27 -5.9 21.3 0 0
11:06 1004 29.65 833 24.6 12.5 54.4 27 -6.2 20.9 0 0
11:07 1004 29.65 833 24.6 12.5 54.5 28 -5.6 21.8 0 0
11:08 1004 29.65 834 24.63 12.5 54.5 26 -6.2 20.8 0 0
11:09 1004 29.65 834 24.63 12.4 54.2 27 -5.8 21.5 0 0
11:10 1004 29.65 834 24.63 12.3 54.1 29 -5.2 22.7 0 0
11:11 1004 29.65 834 24.63 12.3 54.2 27 -5.9 21.4 0 0
11:12 1004 29.65 833 24.6 12.4 54.3 26 -6.5 20.4 0 0
11:13 1004 29.65 833 24.6 12.6 54.6 27 -5.9 21.5 0 0
11:14 1004 29.65 833 24.6 12.8 55.1 26 -6.3 20.7 0 0
11:15 1004 29.65 833 24.6 13 55.4 23 -7.6 18.4 0 0
11:16 1004 29.65 833 24.6 13.1 55.5 26 -5.7 21.7 0 0
11:17 1004 29.65 833 24.6 13.2 55.7 26 -5.9 21.4 0 0
11:18 1004 29.65 833 24.6 13.2 55.7 28 -4.8 23.3 0 0
11:19 1004 29.65 833 24.6 13.1 55.6 28 -5 22.9 0 0
11:20 1004 29.65 834 24.63 13.1 55.5 29 -4.7 23.5 0 0
11:21 1004 29.65 833 24.6 12.9 55.2 26 -6.2 20.8 0 0
11:22 1004 29.65 833 24.6 12.6 54.6 27 -5.7 21.8 0 0
11:23 1004 29.65 833 24.6 12.6 54.6 28 -5.3 22.4 0 0
11:24 1004 29.65 833 24.6 12.8 55 25 -6.6 20.1 0 0
11:25 1004 29.65 833 24.6 12.8 55 25 -6.6 20.1 0 0
11:26 1004 29.65 833 24.6 12.8 55.1 27 -5.6 21.9 0 0
11:27 1004 29.65 833 24.6 12.8 55.1 26 -6.3 20.7 0 0
11:28 1004 29.65 833 24.6 12.6 54.8 28 -5.4 22.2 0 0
11:29 1004 29.65 833 24.6 12.7 54.8 27 -5.8 21.5 0 0
11:30 1004 29.65 833 24.6 12.7 54.9 30 -4.5 23.9 0 0
11:31 1004 29.65 833 24.6 12.7 54.9 27 -5.9 21.5 0 0
11:32 1004 29.65 833 24.6 12.8 55 28 -5.2 22.7 0 0
11:33 1004 29.65 833 24.6 12.7 54.9 27 -6 21.2 0 0
11:34 1004 29.65 833 24.6 12.7 54.8 26 -6.4 20.4 0 0
11:35 1004 29.65 833 24.6 12.9 55.3 24 -7.1 19.2 0 0
11:36 1004 29.65 833 24.6 13.1 55.5 28 -4.9 23.2 0 0
11:37 1004 29.65 833 24.6 13.1 55.6 30 -4.2 24.4 0 0
11:38 1004 29.65 833 24.6 13.1 55.6 27 -5.5 22.2 0 0
11:39 1004 29.65 833 24.6 13.1 55.5 28 -5.1 22.8 0 0
11:40 1004 29.65 833 24.6 13.1 55.6 30 -4.1 24.6 0 0
11:41 1004 29.65 833 24.6 13.3 55.9 29 -4.5 23.9 0 0
11:42 1004 29.65 833 24.6 13.3 55.9 28 -4.9 23.2 0 0
11:43 1004 29.65 833 24.6 13.4 56 27 -5.2 22.7 0 0
11:44 1004 29.65 833 24.6 13.3 55.9 25 -6.3 20.6 0 0
11:45 1004 29.65 833 24.6 13.1 55.6 27 -5.2 22.6 0 0
11:46 1004 29.65 833 24.6 13 55.4 30 -4.3 24.3 0 0
11:47 1004 29.65 833 24.6 13 55.4 29 -4.7 23.6 0 0
11:48 1004 29.65 833 24.6 13.1 55.6 25 -6.5 20.2 0 0
11:49 1004 29.65 833 24.6 13.1 55.5 26 -5.9 21.3 0 0
11:50 1004 29.65 833 24.6 13.2 55.7 27 -5.2 22.6 0 0
11:51 1004 29.65 833 24.6 13.2 55.8 25 -6.2 20.8 0 0
11:52 1004 29.65 833 24.6 13.1 55.5 29 -4.4 24.2 0 0
11:53 1004 29.65 833 24.6 13 55.4 26 -5.8 21.5 0 0
11:54 1003 29.62 833 24.6 13 55.4 24 -6.8 19.8 0 0
11:55 1004 29.65 833 24.6 13 55.4 24 -7 19.4 0 0
11:56 1004 29.65 833 24.6 12.9 55.2 23 -7.6 18.4 0 0
11:57 1004 29.65 833 24.6 12.9 55.2 27 -5.7 21.7 0 0
11:58 1004 29.65 833 24.6 13 55.4 28 -4.9 23.1 0 0
11:59 1004 29.65 833 24.6 13.1 55.5 26 -6 21.3 0 0
12:00 1004 29.65 833 24.6 13.2 55.7 27 -5.4 22.3 0 0
12:01 1004 29.65 833 24.6 13.3 56 24 -6.5 20.3 0 0
12:02 1004 29.65 833 24.6 13.4 56.1 24 -7 19.4 0 0
12:03 1004 29.65 833 24.6 13.6 56.4 25 -6.1 21 0 0
12:04 1004 29.65 833 24.6 13.6 56.5 24 -6.5 20.3 0 0
12:05 1004 29.65 833 24.6 13.4 56.2 26 -5.8 21.6 0 0
12:06 1004 29.65 833 24.6 13.3 55.9 27 -5.4 22.3 0 0
12:07 1004 29.65 833 24.6 13.2 55.7 27 -5.4 22.4 0 0
12:08 1004 29.65 833 24.6 13 55.4 26 -5.8 21.6 0 0
12:09 1004 29.65 833 24.6 13 55.3 30 -4.4 24.1 0 0
12:10 1004 29.65 833 24.6 13.2 55.8 26 -6 21.1 0 0
12:11 1004 29.65 833 24.6 13.5 56.3 25 -6 21.2 0 0
12:12 1004 29.65 833 24.6 13.6 56.4 24 -6.7 19.9 0 0
12:13 1004 29.65 833 24.6 13.5 56.4 29 -4.3 24.3 0 0
12:14 1004 29.65 833 24.6 13.5 56.3 26 -5.6 21.8 0 0
12:15 1004 29.65 833 24.6 13.5 56.3 27 -5.2 22.7 0 0
12:16 1004 29.65 833 24.6 13.5 56.2 29 -4.1 24.6 0 0
12:17 1004 29.65 834 24.63 13.6 56.4 30 -3.6 25.6 0 0
12:18 1004 29.65 833 24.6 13.6 56.5 25 -5.8 21.6 0 0
12:19 1004 29.65 833 24.6 13.6 56.4 29 -3.9 24.9 0 0
12:20 1004 29.65 833 24.6 13.7 56.6 26 -5.5 22.2 0 0
12:21 1004 29.65 833 24.6 13.5 56.3 25 -6 21.2 0 0
12:22 1004 29.65 833 24.6 13.3 56 26 -6 21.2 0 0
12:23 1004 29.65 833 24.6 13.2 55.8 28 -4.7 23.5 0 0
12:24 1004 29.65 833 24.6 13.2 55.8 27 -5.2 22.6 0 0
12:25 1004 29.65 833 24.6 13.1 55.6 28 -5 23.1 0 0
12:26 1004 29.65 833 24.6 12.9 55.3 28 -5.1 22.8 0 0
12:27 1004 29.65 833 24.6 12.8 55.1 28 -5 23 0 0
12:28 1004 29.65 833 24.6 12.8 55.1 27 -5.5 22.1 0 0
12:29 1004 29.65 833 24.6 12.9 55.3 28 -5.2 22.7 0 0
12:30 1004 29.65 833 24.6 12.9 55.1 28 -5.2 22.7 0 0
12:31 1004 29.65 833 24.6 12.9 55.2 28 -5.2 22.6 0 0
12:32 1004 29.65 833 24.6 12.8 55.1 26 -6.1 21 0 0
12:33 1004 29.65 833 24.6 12.8 55 27 -5.9 21.4 0 0
12:34 1004 29.65 833 24.6 12.7 54.9 28 -5.4 22.2 0 0
12:35 1004 29.65 833 24.6 12.8 55 28 -5.3 22.4 0 0
12:36 1004 29.65 833 24.6 12.7 54.8 27 -5.8 21.6 0 0
12:37 1004 29.65 833 24.6 12.6 54.6 28 -5.6 21.8 0 0
12:38 1004 29.65 833 24.6 12.6 54.7 27 -6 21.2 0 0
12:39 1004 29.65 833 24.6 12.7 54.8 28 -5.3 22.5 0 0
12:40 1004 29.65 833 24.6 12.8 55 27 -5.7 21.8 0 0
12:41 1004 29.65 833 24.6 12.7 54.8 30 -4.5 23.9 0 0
12:42 1004 29.65 833 24.6 12.7 54.9 27 -5.9 21.3 0 0
12:43 1004 29.65 833 24.6 12.7 54.9 29 -4.7 23.5 0 0
12:44 1004 29.65 833 24.6 12.8 55 26 -6.3 20.6 0 0
12:45 1004 29.65 833 24.6 12.8 55.1 28 -5.4 22.2 0 0
12:46 1004 29.65 833 24.6 13 55.4 29 -4.7 23.5 0 0
12:47 1004 29.65 833 24.6 13.2 55.8 27 -5.6 22 0 0
12:48 1004 29.65 833 24.6 13.2 55.7 28 -5 22.9 0 0
12:49 1004 29.65 833 24.6 13.1 55.5 28 -5.2 22.6 0 0
12:50 1004 29.65 833 24.6 13 55.3 28 -4.9 23.1 0 0
12:51 1004 29.65 833 24.6 12.9 55.2 28 -5.2 22.7 0 0
12:52 1004 29.65 833 24.6 12.9 55.1 26 -6.1 21.1 0 0
12:53 1004 29.65 833 24.6 12.8 55 27 -5.6 21.9 0 0
12:54 1004 29.65 833 24.6 12.8 55.1 27 -5.8 21.5 0 0
12:55 1003 29.62 833 24.6 12.8 55 27 -5.7 21.7 0 0
12:56 1004 29.65 833 24.6 12.7 54.9 27 -5.8 21.6 0 0
12:57 1004 29.65 833 24.6 12.8 55 27 -5.6 21.9 0 0
12:58 1004 29.65 833 24.6 12.8 55.1 29 -4.8 23.4 0 0
12:59 1004 29.65 833 24.6 12.8 55.1 27 -5.4 22.2 0 0
13:00 1004 29.65 833 24.6 12.8 55 27 -5.7 21.7 0 0
13:01 1004 29.65 833 24.6 12.7 54.9 28 -5.2 22.6 0 0
13:02 1004 29.65 833 24.6 12.7 54.9 29 -4.7 23.6 0 0
13:03 1004 29.65 833 24.6 12.8 55 30 -4.4 24.1 0 0
13:04 1004 29.65 833 24.6 12.8 55 28 -5 22.9 0 0
13:05 1004 29.65 833 24.6 12.8 55.1 29 -4.9 23.2 0 0
13:06 1004 29.65 833 24.6 12.8 55 27 -5.7 21.8 0 0
13:07 1004 29.65 833 24.6 12.7 54.9 29 -5 23.1 0 0
13:08 1003 29.62 833 24.6 12.7 54.9 27 -5.6 21.8 0 0
13:09 1003 29.62 833 24.6 12.6 54.7 28 -5.3 22.5 0 0
13:10 1003 29.62 832 24.57 12.6 54.8 27 -5.7 21.8 0 0
13:11 1003 29.62 832 24.57 12.7 54.8 28 -5.6 22 0 0
13:12 1003 29.62 833 24.6 12.6 54.7 29 -5.1 22.9 0 0
13:13 1003 29.62 833 24.6 12.8 55 28 -5.5 22.2 0 0
13:14 1003 29.62 833 24.6 12.9 55.1 27 -5.5 22.1 0 0
13:15 1003 29.62 833 24.6 12.9 55.2 29 -4.6 23.8 0 0
13:16 1003 29.62 832 24.57 12.9 55.3 29 -4.5 23.9 0 0
13:17 1003 29.62 833 24.6 12.9 55.1 27 -5.6 21.9 0 0
13:18 1003 29.62 833 24.6 12.8 55 29 -4.6 23.8 0 0
13:19 1003 29.62 832 24.57 12.8 55 29 -4.8 23.4 0 0
13:20 1003 29.62 832 24.57 12.7 54.8 28 -5.4 22.3 0 0
13:21 1003 29.62 833 24.6 12.6 54.7 29 -5.1 22.9 0 0
13:22 1003 29.62 833 24.6 12.7 54.8 30 -4.3 24.2 0 0
13:23 1003 29.62 833 24.6 12.7 54.8 30 -4.5 23.9 0 0
13:24 1003 29.62 833 24.6 12.6 54.6 29 -5.1 22.9 0 0
13:25 1004 29.65 833 24.6 12.5 54.5 29 -4.8 23.3 0 0
13:26 1003 29.62 833 24.6 12.4 54.4 28 -5.4 22.3 0 0
13:27 1003 29.62 833 24.6 12.2 54 30 -5 23 0 0
13:28 1003 29.62 833 24.6 12.1 53.7 28 -5.8 21.5 0 0
13:29 1003 29.62 833 24.6 12.1 53.7 29 -5.4 22.3 0 0
13:30 1003 29.62 832 24.57 12.3 54.1 30 -4.9 23.3 0 0
13:31 1003 29.62 832 24.57 12.4 54.2 30 -4.7 23.5 0 0
13:32 1003 29.62 833 24.6 12.2 54 31 -4.3 24.2 0 0
13:33 1003 29.62 832 24.57 12.2 54 31 -4.3 24.3 0 0
13:34 1003 29.62 833 24.6 12.2 53.9 29 -5.3 22.4 0 0
13:35 1003 29.62 833 24.6 12 53.7 29 -5.4 22.3 0 0
13:36 1003 29.62 833 24.6 12 53.5 30 -5.2 22.7 0 0
13:37 1003 29.62 832 24.57 12 53.5 28 -5.8 21.5 0 0
13:38 1003 29.62 832 24.57 11.8 53.2 30 -5.3 22.5 0 0
13:39 1003 29.62 833 24.6 11.7 53 31 -5 22.9 0 0
13:40 1003 29.62 833 24.6 11.7 53.1 32 -4.4 24.2 0 0
13:41 1003 29.62 833 24.6 11.8 53.2 31 -4.8 23.3 0 0
13:42 1003 29.62 833 24.6 11.7 53 31 -4.7 23.6 0 0
13:43 1003 29.62 833 24.6 11.7 53 31 -4.7 23.5 0 0
13:44 1003 29.62 832 24.57 11.7 53 30 -5.1 22.9 0 0
13:45 1003 29.62 832 24.57 11.7 53.1 30 -5.3 22.5 0 0
13:46 1003 29.62 832 24.57 11.6 52.8 29 -5.7 21.7 0 0
13:47 1003 29.62 833 24.6 11.5 52.7 30 -5.3 22.5 0 0
13:48 1003 29.62 833 24.6 11.5 52.6 30 -5.6 22 0 0
13:49 1003 29.62 832 24.57 11.4 52.6 31 -5 23 0 0
13:50 1003 29.62 832 24.57 11.4 52.5 29 -5.9 21.4 0 0
13:51 1003 29.62 833 24.6 11.3 52.4 32 -4.8 23.4 0 0
13:52 1003 29.62 833 24.6 11.4 52.4 32 -4.7 23.6 0 0
13:53 1003 29.62 833 24.6 11.4 52.4 31 -5.3 22.5 0 0
13:54 1003 29.62 833 24.6 11.4 52.5 31 -5.1 22.7 0 0
13:55 1003 29.62 833 24.6 11.4 52.6 31 -5 23.1 0 0
13:56 1003 29.62 833 24.6 11.4 52.5 32 -4.5 24 0 0
13:57 1003 29.62 833 24.6 11.4 52.5 32 -4.6 23.7 0 0
13:58 1003 29.62 833 24.6 11.4 52.5 31 -5.2 22.6 0 0
13:59 1003 29.62 833 24.6 11.4 52.5 32 -4.8 23.3 0 0
14:00 1003 29.62 833 24.6 11.4 52.6 32 -4.8 23.4 0 0
14:01 1003 29.62 832 24.57 11.4 52.6 31 -5.1 22.8 0 0
14:02 1003 29.62 832 24.57 11.4 52.5 31 -5.1 22.8 0 0
14:03 1003 29.62 832 24.57 11.5 52.8 30 -5.2 22.6 0 0
14:04 1003 29.62 832 24.57 11.7 53 30 -5.1 22.8 0 0
14:05 1003 29.62 832 24.57 11.7 53 29 -5.7 21.7 0 0
14:06 1003 29.62 832 24.57 11.5 52.7 31 -5.2 22.6 0 0
14:07 1003 29.62 833 24.6 11.4 52.5 31 -5 23 0 0
14:08 1003 29.62 833 24.6 11.4 52.4 31 -5.1 22.8 0 0
14:09 1003 29.62 833 24.6 11.2 52.2 32 -5 23 0 0
14:10 1003 29.62 833 24.6 11.2 52.1 30 -5.6 22 0 0
14:11 1003 29.62 832 24.57 11.1 51.9 31 -5.3 22.4 0 0
14:12 1003 29.62 832 24.57 11 51.7 31 -5.5 22.2 0 0
14:13 1003 29.62 833 24.6 10.9 51.6 32 -5.1 22.9 0 0
14:14 1003 29.62 833 24.6 10.9 51.6 32 -5.3 22.4 0 0
14:15 1003 29.62 833 24.6 10.9 51.6 33 -4.7 23.6 0 0
14:16 1003 29.62 833 24.6 10.9 51.6 32 -5.1 22.8 0 0
14:17 1003 29.62 832 24.57 10.9 51.6 31 -5.6 22 0 0
14:18 1003 29.62 833 24.6 10.9 51.6 32 -5.2 22.7 0 0
14:19 1003 29.62 833 24.6 10.8 51.5 34 -4.6 23.8 0 0
14:20 1003 29.62 833 24.6 10.8 51.5 33 -4.9 23.2 0 0
14:21 1003 29.62 833 24.6 10.9 51.5 33 -4.6 23.6 0 0
14:22 1003 29.62 832 24.57 10.9 51.6 30 -5.8 21.6 0 0
14:23 1003 29.62 832 24.57 10.9 51.7 32 -5 22.9 0 0
14:24 1003 29.62 833 24.6 10.9 51.6 31 -5.5 22.2 0 0
14:25 1003 29.62 832 24.57 10.9 51.5 32 -5 23 0 0
14:26 1003 29.62 833 24.6 10.9 51.5 32 -5 23 0 0
14:27 1003 29.62 833 24.6 10.9 51.7 32 -5.3 22.5 0 0
14:28 1003 29.62 832 24.57 11 51.8 31 -5.4 22.3 0 0
14:29 1003 29.62 832 24.57 11 51.8 31 -5.4 22.4 0 0
14:30 1003 29.62 832 24.57 11 51.9 32 -5.1 22.8 0 0
14:31 1003 29.62 833 24.6 11 51.8 31 -5.3 22.4 0 0
14:32 1003 29.62 833 24.6 11 51.8 31 -5.4 22.2 0 0
14:33 1003 29.62 833 24.6 11 51.8 31 -5.4 22.2 0 0
14:34 1003 29.62 833 24.6 11.1 51.9 32 -4.9 23.2 0 0
14:35 1003 29.62 832 24.57 11.1 52 30 -5.6 21.9 0 0
14:36 1003 29.62 832 24.57 11.1 52 31 -5.5 22.1 0 0
14:37 1003 29.62 832 24.57 11.1 51.9 31 -5.3 22.4 0 0
14:38 1003 29.62 832 24.57 11.1 51.9 31 -5.6 21.9 0 0
14:39 1003 29.62 832 24.57 11 51.7 31 -5.4 22.3 0 0
14:40 1003 29.62 832 24.57 11 51.7 31 -5.6 21.9 0 0
14:41 1003 29.62 832 24.57 10.9 51.6 31 -5.5 22.1 0 0
14:42 1003 29.62 832 24.57 10.9 51.6 31 -5.7 21.7 0 0
14:43 1003 29.62 832 24.57 10.8 51.5 32 -5.3 22.4 0 0
14:44 1003 29.62 832 24.57 10.8 51.4 32 -5.1 22.9 0 0
14:45 1003 29.62 832 24.57 10.8 51.5 31 -5.5 22.1 0 0
14:46 1003 29.62 832 24.57 10.8 51.4 32 -5.1 22.9 0 0
14:47 1003 29.62 832 24.57 10.8 51.4 32 -5.3 22.4 0 0
14:48 1003 29.62 832 24.57 10.7 51.3 32 -5.2 22.6 0 0
14:49 1003 29.62 832 24.57 10.7 51.3 32 -5.5 22.1 0 0
14:50 1003 29.62 832 24.57 10.8 51.4 32 -5.3 22.5 0 0
14:51 1003 29.62 832 24.57 10.7 51.3 32 -5.4 22.3 0 0
14:52 1003 29.62 832 24.57 10.7 51.3 32 -5.2 22.6 0 0
14:53 1003 29.62 832 24.57 10.7 51.3 33 -5 23 0 0
14:54 1003 29.62 832 24.57 10.8 51.4 33 -4.9 23.2 0 0
14:55 1003 29.62 832 24.57 10.8 51.4 32 -5.3 22.4 0 0
14:56 1003 29.62 832 24.57 10.8 51.4 33 -5 23.1 0 0
14:57 1003 29.62 832 24.57 10.7 51.2 32 -5.4 22.2 0 0
14:58 1003 29.62 832 24.57 10.7 51.3 32 -5.3 22.4 0 0
14:59 1003 29.62 832 24.57 10.8 51.4 31 -5.6 22 0 0
15:00 1003 29.62 832 24.57 10.8 51.4 31 -5.7 21.7 0 0
15:01 1003 29.62 832 24.57 10.8 51.4 33 -5 23.1 0 0
15:02 1003 29.62 832 24.57 10.8 51.5 31 -5.4 22.2 0 0
15:03 1003 29.62 832 24.57 10.8 51.5 33 -5 23.1 0 0
15:04 1003 29.62 832 24.57 10.8 51.5 31 -5.5 22.1 0 0
15:05 1003 29.62 832 24.57 10.8 51.5 32 -5 23 0 0
15:06 1003 29.62 832 24.57 10.9 51.5 32 -5.2 22.7 0 0
15:07 1003 29.62 832 24.57 10.9 51.5 32 -5.3 22.5 0 0
15:08 1003 29.62 832 24.57 10.8 51.5 32 -5.2 22.7 0 0
15:09 1003 29.62 832 24.57 10.8 51.5 31 -5.4 22.3 0 0
15:10 1003 29.62 832 24.57 10.8 51.5 31 -5.7 21.8 0 0
15:11 1003 29.62 832 24.57 10.8 51.5 32 -5.2 22.6 0 0
15:12 1003 29.62 832 24.57 10.8 51.4 32 -5.3 22.5 0 0
15:13 1003 29.62 832 24.57 10.8 51.4 33 -4.8 23.4 0 0
15:14 1003 29.62 832 24.57 10.8 51.4 31 -5.7 21.7 0 0
15:15 1003 29.62 832 24.57 10.8 51.5 31 -5.7 21.7 0 0
15:16 1003 29.62 832 24.57 10.8 51.4 31 -5.7 21.8 0 0
15:17 1003 29.62 832 24.57 10.8 51.5 32 -5.2 22.6 0 0
15:18 1003 29.62 832 24.57 10.8 51.4 33 -5 23.1 0 0
15:19 1003 29.62 832 24.57 10.8 51.4 33 -4.8 23.4 0 0
15:20 1003 29.62 832 24.57 10.8 51.5 32 -5.2 22.7 0 0
15:21 1003 29.62 832 24.57 10.8 51.4 32 -5.1 22.9 0 0
15:22 1003 29.62 832 24.57 10.8 51.4 32 -5.4 22.3 0 0
15:23 1003 29.62 832 24.57 10.8 51.4 31 -5.6 22 0 0
15:24 1003 29.62 832 24.57 10.7 51.3 32 -5.3 22.5 0 0
15:25 1003 29.62 832 24.57 10.7 51.2 32 -5.4 22.3 0 0
15:26 1003 29.62 832 24.57 10.6 51.1 33 -5 22.9 0 0
15:27 1003 29.62 832 24.57 10.6 51 31 -5.8 21.6 0 0
15:28 1003 29.62 832 24.57 10.6 51.1 31 -5.7 21.8 0 0
15:29 1003 29.62 832 24.57 10.5 51 32 -5.3 22.4 0 0
15:30 1003 29.62 832 24.57 10.5 50.9 32 -5.5 22.2 0 0
15:31 1003 29.62 832 24.57 10.5 50.9 33 -5 23 0 0
15:32 1003 29.62 832 24.57 10.5 50.9 32 -5.5 22.1 0 0
15:33 1003 29.62 832 24.57 10.5 51 33 -5.1 22.8 0 0
15:34 1003 29.62 832 24.57 10.6 51 32 -5.2 22.6 0 0
15:35 1003 29.62 832 24.57 10.6 51 32 -5.5 22.1 0 0
15:36 1003 29.62 832 24.57 10.6 51.1 32 -5.3 22.5 0 0
15:37 1003 29.62 832 24.57 10.7 51.2 32 -5.4 22.4 0 0
15:38 1003 29.62 832 24.57 10.8 51.4 31 -5.5 22 0 0
15:39 1003 29.62 832 24.57 10.8 51.5 32 -5.2 22.6 0 0
15:40 1003 29.62 832 24.57 10.9 51.6 31 -5.4 22.2 0 0
15:41 1003 29.62 832 24.57 10.9 51.6 30 -5.9 21.3 0 0
15:42 1003 29.62 832 24.57 10.9 51.5 31 -5.5 22.2 0 0
15:43 1003 29.62 832 24.57 10.8 51.5 31 -5.7 21.7 0 0
15:44 1003 29.62 832 24.57 10.8 51.5 31 -5.6 21.9 0 0
15:45 1003 29.62 832 24.57 10.9 51.5 31 -5.8 21.6 0 0
15:46 1003 29.62 832 24.57 10.8 51.5 31 -5.5 22 0 0
15:47 1003 29.62 832 24.57 10.9 51.6 30 -6 21.3 0 0
15:48 1003 29.62 832 24.57 10.9 51.7 31 -5.7 21.8 0 0
15:49 1003 29.62 832 24.57 10.9 51.7 32 -4.9 23.1 0 0
15:50 1003 29.62 832 24.57 11 51.7 32 -5 23 0 0
15:51 1003 29.62 832 24.57 11 51.8 32 -5.2 22.7 0 0
15:52 1003 29.62 832 24.57 11 51.7 30 -5.9 21.3 0 0
15:53 1003 29.62 832 24.57 11 51.7 31 -5.3 22.4 0 0
15:54 1003 29.62 832 24.57 10.9 51.6 30 -6 21.1 0 0
15:55 1003 29.62 832 24.57 10.9 51.6 31 -5.6 22 0 0
15:56 1003 29.62 832 24.57 10.9 51.6 30 -6.1 20.9 0 0
15:57 1003 29.62 832 24.57 10.8 51.4 31 -5.7 21.7 0 0
15:58 1003 29.62 832 24.57 10.7 51.3 31 -5.6 21.9 0 0
15:59 1003 29.62 833 24.6 10.7 51.3 31 -5.6 22 0 0
16:00 1003 29.62 833 24.6 10.7 51.3 32 -5.2 22.7 0 0
16:01 1003 29.62 833 24.6 10.7 51.3 31 -5.8 21.6 0 0
16:02 1003 29.62 832 24.57 10.7 51.2 31 -5.8 21.5 0 0
16:03 1003 29.62 832 24.57 10.6 51.1 31 -5.9 21.4 0 0
16:04 1003 29.62 833 24.6 10.6 51 32 -5.4 22.3 0 0
16:05 1003 29.62 832 24.57 10.5 50.9 32 -5.7 21.8 0 0
16:06 1003 29.62 833 24.6 10.5 50.9 30 -6.2 20.9 0 0
16:07 1003 29.62 832 24.57 10.5 50.9 31 -6.1 21 0 0
16:08 1003 29.62 832 24.57 10.5 51 31 -5.8 21.5 0 0
16:09 1003 29.62 833 24.6 10.5 50.9 32 -5.5 22 0 0
16:10 1003 29.62 832 24.57 10.5 50.9 32 -5.6 21.9 0 0
16:11 1003 29.62 833 24.6 10.6 51 31 -5.8 21.6 0 0
16:12 1003 29.62 833 24.6 10.6 51.1 32 -5.2 22.6 0 0
16:13 1003 29.62 832 24.57 10.6 51.1 31 -5.8 21.6 0 0
16:14 1003 29.62 832 24.57 10.6 51.2 31 -5.9 21.3 0 0
16:15 1003 29.62 833 24.6 10.7 51.2 31 -5.7 21.8 0 0
16:16 1003 29.62 832 24.57 10.7 51.2 32 -5.2 22.6 0 0
16:17 1003 29.62 833 24.6 10.7 51.3 30 -6 21.1 0 0
16:18 1003 29.62 833 24.6 10.8 51.4 31 -5.7 21.7 0 0
16:19 1003 29.62 832 24.57 10.8 51.4 30 -5.9 21.3 0 0
16:20 1003 29.62 832 24.57 10.8 51.4 30 -6 21.2 0 0
16:21 1003 29.62 832 24.57 10.7 51.3 30 -6.2 20.9 0 0
16:22 1003 29.62 833 24.6 10.7 51.2 32 -5.5 22.1 0 0
16:23 1003 29.62 833 24.6 10.7 51.2 31 -5.7 21.8 0 0
16:24 1003 29.62 833 24.6 10.7 51.3 31 -5.8 21.6 0 0
16:25 1004 29.65 833 24.6 10.7 51.3 31 -5.6 21.9 0 0
16:26 1003 29.62 833 24.6 10.7 51.3 29 -6.6 20.1 0 0
16:27 1003 29.62 833 24.6 10.7 51.3 30 -6.1 21 0 0
16:28 1004 29.65 833 24.6 10.8 51.4 30 -6 21.2 0 0
16:29 1004 29.65 833 24.6 10.7 51.3 30 -5.9 21.3 0 0
16:30 1004 29.65 833 24.6 10.7 51.3 29 -6.4 20.5 0 0
16:31 1004 29.65 833 24.6 10.7 51.3 30 -6 21.2 0 0
16:32 1004 29.65 833 24.6 10.7 51.3 30 -5.9 21.3 0 0
16:33 1004 29.65 833 24.6 10.7 51.3 30 -6.2 20.9 0 0
16:34 1004 29.65 833 24.6 10.8 51.4 31 -5.7 21.7 0 0
16:35 1004 29.65 833 24.6 10.8 51.5 32 -5.3 22.5 0 0
16:36 1004 29.65 833 24.6 10.9 51.6 31 -5.6 21.8 0 0
16:37 1004 29.65 833 24.6 10.9 51.7 30 -5.9 21.4 0 0
16:38 1004 29.65 833 24.6 11 51.7 30 -6 21.3 0 0
16:39 1004 29.65 833 24.6 10.9 51.6 30 -6.1 21 0 0
16:40 1004 29.65 833 24.6 10.9 51.6 30 -5.8 21.5 0 0
16:41 1004 29.65 833 24.6 10.9 51.6 30 -5.9 21.4 0 0
16:42 1004 29.65 833 24.6 10.8 51.5 32 -5.2 22.7 0 0
16:43 1004 29.65 833 24.6 10.8 51.4 32 -5.1 22.8 0 0
16:44 1004 29.65 833 24.6 10.8 51.4 31 -5.7 21.8 0 0
16:45 1004 29.65 833 24.6 10.8 51.4 32 -5.2 22.6 0 0
16:46 1004 29.65 833 24.6 10.8 51.4 31 -5.8 21.5 0 0
16:47 1004 29.65 833 24.6 10.7 51.3 32 -5.4 22.3 0 0
16:48 1004 29.65 833 24.6 10.7 51.3 33 -4.9 23.1 0 0
16:49 1004 29.65 833 24.6 10.8 51.4 31 -5.4 22.2 0 0
16:50 1004 29.65 833 24.6 10.8 51.5 32 -5.3 22.4 0 0
16:51 1004 29.65 833 24.6 10.8 51.4 31 -5.6 21.9 0 0
16:52 1004 29.65 833 24.6 10.8 51.5 33 -4.9 23.2 0 0
16:53 1004 29.65 833 24.6 10.8 51.5 31 -5.7 21.7 0 0
16:54 1004 29.65 833 24.6 10.8 51.4 31 -5.8 21.6 0 0
16:55 1004 29.65 833 24.6 10.8 51.4 30 -6 21.2 0 0
16:56 1004 29.65 833 24.6 10.8 51.4 31 -5.4 22.2 0 0
16:57 1004 29.65 833 24.6 10.8 51.4 30 -5.9 21.5 0 0
16:58 1004 29.65 833 24.6 10.8 51.4 31 -5.7 21.7 0 0
16:59 1004 29.65 833 24.6 10.8 51.4 32 -5 23 0 0
17:00 1004 29.65 833 24.6 10.8 51.4 31 -5.6 21.8 0 0
17:01 1004 29.65 833 24.6 10.8 51.4 32 -5.3 22.4 0 0
17:02 1004 29.65 833 24.6 10.8 51.5 31 -5.6 21.9 0 0
17:03 1004 29.65 833 24.6 10.8 51.4 32 -5.4 22.3 0 0
17:04 1004 29.65 833 24.6 10.8 51.5 31 -5.8 21.6 0 0
17:05 1004 29.65 833 24.6 10.8 51.5 31 -5.5 22 0 0
17:06 1004 29.65 833 24.6 10.8 51.4 30 -6 21.2 0 0
17:07 1004 29.65 833 24.6 10.8 51.4 30 -6.3 20.7 0 0
17:08 1004 29.65 833 24.6 10.8 51.4 30 -6.1 21 0 0
17:09 1004 29.65 833 24.6 10.7 51.3 30 -6.1 20.9 0 0
17:10 1004 29.65 833 24.6 10.7 51.3 31 -5.6 21.9 0 0
17:11 1004 29.65 833 24.6 10.7 51.3 30 -6 21.2 0 0
17:12 1004 29.65 833 24.6 10.8 51.4 31 -5.6 22 0 0
17:13 1004 29.65 833 24.6 10.8 51.4 31 -5.4 22.2 0 0
17:14 1004 29.65 833 24.6 10.8 51.4 32 -5.1 22.8 0 0
17:15 1004 29.65 833 24.6 10.7 51.2 31 -6 21.3 0 0
17:16 1004 29.65 833 24.6 10.7 51.2 29 -6.5 20.4 0 0
17:17 1004 29.65 833 24.6 10.6 51.1 30 -6.2 20.8 0 0
17:18 1004 29.65 833 24.6 10.6 51.1 32 -5.4 22.2 0 0
17:19 1004 29.65 833 24.6 10.6 51 31 -6 21.2 0 0
17:20 1004 29.65 833 24.6 10.6 51.1 30 -6.1 20.9 0 0
17:21 1004 29.65 833 24.6 10.6 51.2 29 -6.6 20.2 0 0
17:22 1004 29.65 833 24.6 10.6 51.2 30 -6.2 20.9 0 0
17:23 1004 29.65 833 24.6 10.6 51.1 30 -6.1 21 0 0
17:24 1004 29.65 833 24.6 10.6 51.1 31 -5.8 21.6 0 0
17:25 1004 29.65 833 24.6 10.6 51 30 -6.1 21.1 0 0
17:26 1004 29.65 833 24.6 10.6 51 31 -6 21.3 0 0
17:27 1004 29.65 833 24.6 10.6 51 31 -5.7 21.7 0 0
17:28 1004 29.65 833 24.6 10.5 51 32 -5.5 22 0 0
17:29 1004 29.65 833 24.6 10.6 51 31 -5.7 21.7 0 0
17:30 1004 29.65 833 24.6 10.6 51 32 -5.4 22.2 0 0
17:31 1004 29.65 833 24.6 10.6 51 32 -5.6 21.9 0 0
17:32 1004 29.65 833 24.6 10.6 51 32 -5.5 22.2 0 0
17:33 1004 29.65 833 24.6 10.6 51 31 -5.8 21.6 0 0
17:34 1004 29.65 833 24.6 10.6 51.1 32 -5.5 22.1 0 0
17:35 1004 29.65 833 24.6 10.6 51 32 -5.5 22.2 0 0
17:36 1004 29.65 833 24.6 10.6 51 31 -5.8 21.6 0 0
17:37 1004 29.65 833 24.6 10.6 51 33 -5.2 22.7 0 0
17:38 1004 29.65 833 24.6 10.6 51 30 -6.3 20.7 0 0
17:39 1004 29.65 833 24.6 10.6 51 31 -5.7 21.8 0 0
17:40 1004 29.65 833 24.6 10.5 50.9 31 -5.8 21.6 0 0
17:41 1004 29.65 833 24.6 10.5 50.9 32 -5.5 22.1 0 0
17:42 1004 29.65 834 24.63 10.5 50.8 31 -6 21.2 0 0
17:43 1004 29.65 834 24.63 10.5 50.9 34 -4.7 23.5 0 0
17:44 1004 29.65 833 24.6 10.4 50.8 32 -5.6 21.8 0 0
17:45 1004 29.65 833 24.6 10.4 50.7 31 -6.2 20.9 0 0
17:46 1004 29.65 833 24.6 10.5 50.9 32 -5.6 21.9 0 0
17:47 1004 29.65 833 24.6 10.4 50.8 31 -5.7 21.7 0 0
17:48 1004 29.65 833 24.6 10.4 50.8 32 -5.5 22.1 0 0
17:49 1004 29.65 834 24.63 10.4 50.6 33 -5 22.9 0 0
17:50 1004 29.65 833 24.6 10.3 50.6 31 -6 21.2 0 0
17:51 1004 29.65 833 24.6 10.4 50.7 31 -5.9 21.4 0 0
17:52 1004 29.65 833 24.6 10.5 50.8 31 -5.9 21.3 0 0
17:53 1004 29.65 833 24.6 10.5 50.8 31 -6 21.2 0 0
17:54 1004 29.65 833 24.6 10.5 50.8 30 -6.2 20.9 0 0
17:55 1004 29.65 834 24.63 10.5 50.9 31 -5.7 21.7 0 0
17:56 1004 29.65 834 24.63 10.5 50.8 32 -5.4 22.3 0 0
17:57 1004 29.65 834 24.63 10.4 50.8 32 -5.5 22 0 0
17:58 1004 29.65 834 24.63 10.5 50.8 31 -5.9 21.4 0 0
17:59 1004 29.65 834 24.63 10.5 50.9 31 -6 21.2 0 0
18:00 1004 29.65 834 24.63 10.6 51 31 -6 21.3 0 0
18:01 1004 29.65 834 24.63 10.6 51.1 30 -6.2 20.8 0 0
18:02 1004 29.65 834 24.63 10.6 51.1 30 -6 21.2 0 0
18:03 1004 29.65 834 24.63 10.6 51 32 -5.4 22.3 0 0
18:04 1004 29.65 834 24.63 10.5 50.9 31 -6.1 21.1 0 0
18:05 1004 29.65 834 24.63 10.5 50.9 31 -5.9 21.5 0 0
18:06 1004 29.65 834 24.63 10.5 50.9 30 -6.2 20.8 0 0
18:07 1004 29.65 834 24.63 10.5 51 30 -6.2 20.9 0 0
18:08 1004 29.65 834 24.63 10.6 51 30 -6.2 20.8 0 0
18:09 1004 29.65 834 24.63 10.6 51 31 -5.9 21.3 0 0
18:10 1004 29.65 834 24.63 10.6 51 31 -6 21.2 0 0
18:11 1004 29.65 834 24.63 10.6 51 31 -5.9 21.4 0 0
18:12 1004 29.65 834 24.63 10.5 51 30 -6.2 20.8 0 0
18:13 1004 29.65 833 24.6 10.6 51 29 -6.8 19.8 0 0
18:14 1004 29.65 834 24.63 10.6 51 31 -5.8 21.6 0 0
18:15 1004 29.65 834 24.63 10.6 51 30 -6.1 21 0 0
18:16 1004 29.65 833 24.6 10.6 51 29 -6.7 19.9 0 0
18:17 1004 29.65 833 24.6 10.6 51.1 30 -6.4 20.5 0 0
18:18 1004 29.65 833 24.6 10.6 51 30 -6.1 21 0 0
18:19 1004 29.65 833 24.6 10.5 50.8 30 -6.6 20.2 0 0
18:20 1004 29.65 834 24.63 10.4 50.7 31 -6 21.2 0 0
18:21 1004 29.65 834 24.63 10.3 50.5 31 -6.2 20.9 0 0
18:22 1004 29.65 833 24.6 10.3 50.6 31 -6.1 21 0 0
18:23 1004 29.65 833 24.6 10.3 50.5 31 -6 21.2 0 0
18:24 1004 29.65 833 24.6 10.3 50.5 30 -6.5 20.3 0 0
18:25 1004 29.65 834 24.63 10.4 50.6 29 -6.9 19.7 0 0
18:26 1004 29.65 834 24.63 10.4 50.6 31 -6 21.2 0 0
18:27 1004 29.65 834 24.63 10.2 50.4 31 -6.3 20.7 0 0
18:28 1004 29.65 834 24.63 10.1 50.2 32 -6 21.2 0 0
18:29 1004 29.65 834 24.63 10.1 50.1 31 -6.2 20.8 0 0
18:30 1004 29.65 834 24.63 10 50 33 -5.6 22 0 0
18:31 1004 29.65 834 24.63 9.9 49.9 30 -6.7 20 0 0
18:32 1004 29.65 833 24.6 10 50 29 -7.1 19.2 0 0
18:33 1004 29.65 833 24.6 10.1 50.3 30 -6.7 19.9 0 0
18:34 1004 29.65 834 24.63 10.2 50.3 32 -5.8 21.6 0 0
18:35 1004 29.65 833 24.6 10.1 50.1 29 -7.3 18.9 0 0
18:36 1004 29.65 834 24.63 10.2 50.4 30 -6.4 20.5 0 0
18:37 1004 29.65 833 24.6 10.2 50.4 31 -6.1 21.1 0 0
18:38 1004 29.65 834 24.63 10.1 50.2 32 -5.8 21.5 0 0
18:39 1004 29.65 834 24.63 10 50.1 32 -6 21.3 0 0
18:40 1005 29.68 834 24.63 10 50 32 -6 21.3 0 0
18:41 1005 29.68 834 24.63 10 49.9 33 -5.7 21.8 0 0
18:42 1005 29.68 834 24.63 9.9 49.8 33 -5.6 22 0 0
18:43 1004 29.65 834 24.63 9.9 49.7 31 -6.6 20.2 0 0
18:44 1004 29.65 834 24.63 10 49.9 32 -6.1 21.1 0 0
18:45 1004 29.65 834 24.63 9.9 49.9 31 -6.2 20.8 0 0
18:46 1004 29.65 833 24.6 9.9 49.9 30 -6.8 19.7 0 0
18:47 1004 29.65 833 24.6 9.9 49.9 31 -6.4 20.5 0 0
18:48 1005 29.68 834 24.63 9.9 49.8 33 -5.7 21.7 0 0
18:49 1004 29.65 834 24.63 9.8 49.6 32 -6 21.2 0 0
18:50 1004 29.65 833 24.6 9.7 49.5 31 -6.8 19.8 0 0
18:51 1004 29.65 834 24.63 9.8 49.6 32 -6.2 20.9 0 0
18:52 1004 29.65 833 24.6 9.7 49.4 31 -6.6 20.1 0 0
18:53 1004 29.65 833 24.6 9.7 49.4 31 -6.6 20.1 0 0
18:54 1004 29.65 833 24.6 9.7 49.5 30 -7 19.4 0 0
18:55 1004 29.65 833 24.6 9.8 49.6 32 -6.3 20.7 0 0
18:56 1004 29.65 833 24.6 9.7 49.4 30 -6.9 19.6 0 0
18:57 1004 29.65 834 24.63 9.7 49.5 32 -6.2 20.9 0 0
18:58 1004 29.65 834 24.63 9.6 49.2 33 -6 21.2 0 0
18:59 1004 29.65 834 24.63 9.5 49 32 -6.3 20.6 0 0
19:00 1005 29.68 834 24.63 9.4 49 33 -6 21.3 0 0
19:01 1005 29.68 834 24.63 9.3 48.8 34 -5.7 21.7 0 0
19:02 1004 29.65 834 24.63 9.2 48.6 33 -6.3 20.6 0 0
19:03 1004 29.65 834 24.63 9.3 48.7 33 -6.3 20.7 0 0
19:04 1005 29.68 834 24.63 9.3 48.8 33 -6.1 20.9 0 0
19:05 1005 29.68 834 24.63 9.3 48.7 33 -6 21.2 0 0
19:06 1005 29.68 834 24.63 9.2 48.5 33 -6.3 20.7 0 0
19:07 1005 29.68 834 24.63 9.2 48.5 33 -6.4 20.5 0 0
19:08 1005 29.68 834 24.63 9.3 48.7 32 -6.4 20.4 0 0
19:09 1005 29.68 834 24.63 9.5 49 32 -6.4 20.5 0 0
19:10 1005 29.68 834 24.63 9.6 49.2 32 -6.2 20.9 0 0
19:11 1005 29.68 834 24.63 9.4 49 34 -5.8 21.6 0 0
19:12 1005 29.68 834 24.63 9.3 48.7 32 -6.7 19.9 0 0
19:13 1005 29.68 834 24.63 9.3 48.8 33 -6.1 21 0 0
19:14 1005 29.68 834 24.63 9.3 48.7 33 -6.3 20.7 0 0
19:15 1005 29.68 834 24.63 9.3 48.7 33 -6.2 20.9 0 0
19:16 1005 29.68 834 24.63 9.3 48.7 32 -6.6 20.1 0 0
19:17 1005 29.68 834 24.63 9.4 48.9 32 -6.5 20.2 0 0
19:18 1005 29.68 834 24.63 9.5 49 32 -6.4 20.5 0 0
19:19 1005 29.68 834 24.63 9.4 48.9 33 -5.9 21.4 0 0
19:20 1005 29.68 834 24.63 9.2 48.5 33 -6.4 20.4 0 0
19:21 1005 29.68 834 24.63 9.2 48.5 34 -6 21.2 0 0
19:22 1005 29.68 834 24.63 9 48.2 33 -6.3 20.7 0 0
19:23 1005 29.68 834 24.63 9.1 48.3 34 -6 21.1 0 0
19:24 1005 29.68 834 24.63 9.1 48.3 33 -6.4 20.5 0 0
19:25 1005 29.68 834 24.63 9.1 48.3 32 -6.7 19.9 0 0
19:26 1005 29.68 834 24.63 9.2 48.5 31 -7.1 19.2 0 0
19:27 1005 29.68 834 24.63 9.3 48.8 31 -7.1 19.3 0 0
19:28 1005 29.68 834 24.63 9.4 48.9 31 -6.7 19.9 0 0
19:29 1005 29.68 834 24.63 9.5 49.2 32 -6.3 20.7 0 0
19:30 1005 29.68 835 24.66 9.5 49.1 31 -6.6 20.1 0 0
19:31 1005 29.68 835 24.66 9.5 49 32 -6.4 20.4 0 0
19:32 1005 29.68 835 24.66 9.5 49.1 33 -6.1 20.9 0 0
19:33 1005 29.68 835 24.66 9.4 49 33 -6.1 21.1 0 0
19:34 1005 29.68 835 24.66 9.3 48.7 32 -6.4 20.5 0 0
19:35 1006 29.71 835 24.66 9.3 48.7 35 -5.4 22.3 0 0
19:36 1006 29.71 835 24.66 9.2 48.6 35 -5.6 21.9 0 0
19:37 1005 29.68 835 24.66 9.2 48.5 35 -5.6 22 0 0
19:38 1006 29.71 835 24.66 9.1 48.3 36 -5.3 22.5 0 0
19:39 1006 29.71 835 24.66 9 48.3 33 -6.3 20.7 0 0
19:40 1006 29.71 835 24.66 9.2 48.5 33 -6.4 20.4 0 0
19:41 1006 29.71 835 24.66 9.3 48.7 34 -5.6 21.9 0 0
19:42 1006 29.71 835 24.66 9.2 48.6 35 -5.4 22.2 0 0
19:43 1006 29.71 836 24.69 9.1 48.3 36 -5.2 22.7 0 0
19:44 1007 29.74 836 24.69 9 48.1 36 -5.3 22.4 0 0
19:45 1007 29.74 836 24.69 9 48.1 37 -5 23 0 0
19:46 1007 29.74 836 24.69 8.4 47.2 41 -4.2 24.5 0 0
19:47 1007 29.74 836 24.69 6.3 43.4 48 -3.7 25.3 0 0
19:48 1007 29.74 836 24.69 4.7 40.4 54 -3.9 25 0 0
19:49 1007 29.74 836 24.69 3.6 38.4 58 -4 24.8 0 0
19:50 1007 29.74 836 24.69 2.9 37.3 60 -4 24.8 0 0
19:51 1007 29.74 836 24.69 2.6 36.6 62 -3.9 24.9 0 0
19:52 1007 29.74 836 24.69 2.3 36.2 63 -3.9 25 0 0
19:53 1007 29.74 837 24.72 2.2 36 63 -4.1 24.6 0 0
19:54 1007 29.74 836 24.69 2.1 35.9 64 -4 24.9 0 0
19:55 1008 29.77 837 24.72 2.1 35.8 66 -3.7 25.4 0 0
19:56 1008 29.77 837 24.72 1.9 35.4 68 -3.5 25.8 0 0
19:57 1008 29.77 837 24.72 1.8 35.2 68 -3.5 25.7 0 0
19:58 1008 29.77 837 24.72 1.7 35 69 -3.4 25.9 0 0
19:59 1008 29.77 837 24.72 1.6 34.8 69 -3.5 25.8 0 0
20:00 1008 29.77 837 24.72 1.5 34.6 70 -3.4 25.9 0 0
20:01 1008 29.77 837 24.72 1.4 34.6 71 -3.4 26 0 0
20:02 1008 29.77 837 24.72 1.3 34.4 71 -3.3 26 0 0
20:03 1008 29.77 837 24.72 1.3 34.3 71 -3.3 26 0 0
20:04 1008 29.77 837 24.72 1.2 34.1 72 -3.3 26 0 0
20:05 1008 29.77 837 24.72 1.1 34 72 -3.3 26 0 0
20:06 1008 29.77 837 24.72 1.1 33.9 73 -3.3 26.1 0 0
20:07 1008 29.77 837 24.72 1 33.9 73 -3.2 26.2 0 0
20:08 1008 29.77 837 24.72 1.1 33.9 73 -3.2 26.2 0 0
20:09 1008 29.77 837 24.72 1 33.8 73 -3.2 26.2 0 0
20:10 1008 29.77 837 24.72 1 33.8 73 -3.3 26.1 0 0
20:11 1008 29.77 837 24.72 1 33.8 73 -3.2 26.2 0 0
20:12 1008 29.77 837 24.72 1 33.7 74 -3.2 26.2 0 0
20:13 1008 29.77 837 24.72 0.9 33.7 74 -3.3 26.1 0 0
20:14 1008 29.77 837 24.72 0.9 33.7 74 -3.3 26.1 0 0
20:15 1008 29.77 837 24.72 0.9 33.6 74 -3.2 26.2 0 0
20:16 1008 29.77 837 24.72 0.9 33.5 74 -3.3 26.1 0 0
20:17 1008 29.77 837 24.72 0.8 33.5 74 -3.3 26.1 0 0
20:18 1008 29.77 837 24.72 0.8 33.5 74 -3.3 26.1 0 0
20:19 1008 29.77 837 24.72 0.8 33.5 74 -3.3 26.1 0 0
20:20 1008 29.77 837 24.72 0.8 33.5 74 -3.3 26.1 0 0
20:21 1008 29.77 838 24.75 0.8 33.5 75 -3.2 26.3 0 0
20:22 1008 29.77 838 24.75 0.8 33.4 75 -3.1 26.4 0 0
20:23 1009 29.8 838 24.75 0.8 33.4 76 -3 26.5 0 0
20:24 1009 29.8 838 24.75 0.8 33.4 76 -3.1 26.5 0 0
20:25 1009 29.8 838 24.75 0.7 33.3 76 -3 26.5 0 0
20:26 1009 29.8 838 24.75 0.7 33.3 76 -3.1 26.4 0 0
20:27 1009 29.8 838 24.75 0.7 33.3 75 -3.2 26.3 0 0
20:28 1009 29.8 838 24.75 0.6 33.1 76 -3.2 26.3 0 0
20:29 1009 29.8 838 24.75 0.5 33 76 -3.2 26.3 0 0
20:30 1009 29.8 838 24.75 0.5 32.9 76 -3.2 26.2 0 0
20:31 1009 29.8 838 24.75 0.5 32.9 76 -3.2 26.2 0 0
20:32 1009 29.8 839 24.78 0.5 32.9 76 -3.2 26.2 0 0
20:33 1010 29.83 839 24.78 0.5 33 76 -3.2 26.3 0 0
20:34 1010 29.83 839 24.78 0.5 33 76 -3.2 26.2 0 0
20:35 1010 29.83 839 24.78 0.5 33 75 -3.3 26 0 0
20:36 1010 29.83 839 24.78 0.6 33 76 -3.3 26.1 0 0
20:37 1010 29.83 839 24.78 0.6 33.1 75 -3.3 26.1 0 0
20:38 1010 29.83 839 24.78 0.7 33.2 75 -3.3 26.1 0 0
20:39 1010 29.83 839 24.78 0.7 33.2 75 -3.3 26.1 0 0
20:40 1010 29.83 839 24.78 0.7 33.2 75 -3.3 26 0 0
20:41 1010 29.83 839 24.78 0.6 33.2 75 -3.3 26 0 0
20:42 1010 29.83 839 24.78 0.7 33.2 75 -3.3 26.1 0 0
20:43 1010 29.83 839 24.78 0.6 33.1 75 -3.3 26 0 0
20:44 1010 29.83 839 24.78 0.6 33.1 75 -3.2 26.2 0 0
20:45 1010 29.83 839 24.78 0.6 33.1 75 -3.2 26.2 0 0
20:46 1010 29.83 839 24.78 0.6 33.1 76 -3.1 26.3 0 0
20:47 1010 29.83 839 24.78 0.5 33 76 -3.2 26.2 0 0
20:48 1010 29.83 839 24.78 0.5 32.9 76 -3.2 26.3 0 0
20:49 1010 29.83 839 24.78 0.5 32.9 76 -3.2 26.3 0 0
20:50 1010 29.83 839 24.78 0.5 32.9 77 -3.2 26.3 0 0
20:51 1010 29.83 839 24.78 0.5 32.9 76 -3.2 26.3 0 0
20:52 1010 29.83 839 24.78 0.5 32.8 76 -3.2 26.2 0 0
20:53 1010 29.83 839 24.78 0.5 32.9 77 -3.2 26.3 0 0
20:54 1010 29.83 840 24.81 0.5 32.9 77 -3.1 26.4 0 0
20:55 1010 29.83 840 24.81 0.4 32.8 77 -3.1 26.3 0 0
20:56 1010 29.83 840 24.81 0.4 32.8 77 -3.2 26.3 0 0
20:57 1011 29.85 840 24.81 0.5 32.8 78 -3 26.6 0 0
20:58 1011 29.85 840 24.81 0.4 32.8 78 -3 26.6 0 0
20:59 1010 29.83 840 24.81 0.4 32.7 78 -3 26.5 0 0
21:00 1010 29.83 840 24.81 0.3 32.6 78 -3 26.6 0 0
21:01 1011 29.85 840 24.81 0.3 32.5 79 -3 26.7 0 0
21:02 1011 29.85 840 24.81 0.3 32.5 79 -2.9 26.7 0 0
21:03 1011 29.85 840 24.81 0.2 32.4 80 -2.8 27 0 0
21:04 1011 29.85 840 24.81 0.1 32.3 81 -2.8 26.9 0 0
21:05 1011 29.85 840 24.81 0.1 32.2 81 -2.8 26.9 0 0
21:06 1011 29.85 840 24.81 0.1 32.1 81 -2.8 27 0 0
21:07 1011 29.85 840 24.81 0 32 80 -3 26.6 0 0
21:08 1011 29.85 840 24.81 0 32.1 81 -2.8 27 0 0
21:09 1011 29.85 840 24.81 0 32 81 -2.9 26.8 0 0
21:10 1011 29.85 840 24.81 -0 32 82 -2.8 27 0 0
21:11 1011 29.85 840 24.81 -0 31.9 82 -2.8 27 0 0
21:12 1011 29.85 840 24.81 -0.1 31.9 82 -2.8 27 0 0
21:13 1011 29.85 840 24.81 -0.1 31.8 82 -2.9 26.8 0 0
21:14 1011 29.85 840 24.81 -0.1 31.8 82 -2.9 26.9 0 0
21:15 1011 29.85 840 24.81 -0.1 31.7 82 -2.8 27 0 0
21:16 1011 29.85 840 24.81 -0.2 31.7 83 -2.8 27 0 0
21:17 1011 29.85 840 24.81 -0.2 31.6 83 -2.7 27.1 0 0
21:18 1011 29.85 841 24.83 -0.3 31.5 84 -2.7 27.1 0 0
21:19 1011 29.85 841 24.83 -0.3 31.5 84 -2.7 27.2 0 0
21:20 1011 29.85 840 24.81 -0.4 31.3 84 -2.7 27.1 0 0
21:21 1011 29.85 840 24.81 -0.4 31.3 84 -2.7 27.1 0 0
21:22 1011 29.85 840 24.81 -0.4 31.3 85 -2.6 27.2 0 0
21:23 1011 29.85 840 24.81 -0.5 31.2 85 -2.6 27.2 0 0
21:24 1011 29.85 840 24.81 -0.4 31.2 85 -2.6 27.3 0 0
21:25 1011 29.85 840 24.81 -0.5 31.2 85 -2.7 27.2 0 0
21:26 1011 29.85 841 24.83 -0.5 31.1 86 -2.6 27.3 0 0
21:27 1011 29.85 841 24.83 -0.5 31.1 86 -2.6 27.3 0 0
21:28 1011 29.85 841 24.83 -0.5 31.1 86 -2.5 27.4 0 0
21:29 1011 29.85 841 24.83 -0.5 31.1 86 -2.6 27.3 0 0
21:30 1011 29.85 841 24.83 -0.5 31 87 -2.5 27.5 0 0
21:31 1011 29.85 841 24.83 -0.6 31 87 -2.4 27.6 0 0
21:32 1011 29.85 841 24.83 -0.6 31 88 -2.4 27.7 0 0
21:33 1011 29.85 841 24.83 -0.6 30.9 88 -2.3 27.8 0 0
21:34 1011 29.85 841 24.83 -0.7 30.8 89 -2.3 27.8 0 0
21:35 1012 29.88 841 24.83 -0.7 30.7 89 -2.3 27.8 0 0
21:36 1012 29.88 841 24.83 -0.7 30.7 89 -2.3 27.8 0 0
21:37 1012 29.88 841 24.83 -0.7 30.7 89 -2.3 27.9 0 0
21:38 1012 29.88 841 24.83 -0.8 30.6 89 -2.3 27.9 0 0
21:39 1012 29.88 841 24.83 -0.8 30.6 90 -2.3 27.9 0 0
21:40 1012 29.88 841 24.83 -0.8 30.5 90 -2.3 27.9 0 0
21:41 1012 29.88 841 24.83 -0.9 30.5 90 -2.2 28 0 0
21:42 1012 29.88 841 24.83 -0.9 30.4 91 -2.2 28 0 0
21:43 1012 29.88 841 24.83 -0.9 30.4 91 -2.2 28 0 0
21:44 1012 29.88 841 24.83 -1 30.3 91 -2.2 28 0 0
21:45 1012 29.88 841 24.83 -1 30.3 91 -2.2 28.1 0 0
21:46 1012 29.88 841 24.83 -1 30.2 92 -2.1 28.2 0 0
21:47 1012 29.88 841 24.83 -1.1 30.1 92 -2.2 28.1 0 0
21:48 1012 29.88 841 24.83 -1.1 30 93 -2.2 28.1 0 0
21:49 1012 29.88 841 24.83 -1.1 30 93 -2.1 28.2 0 0
21:50 1012 29.88 841 24.83 -1.2 29.9 93 -2.1 28.2 0 0
21:51 1012 29.88 841 24.83 -1.2 29.8 94 -2.1 28.3 0 0
21:52 1012 29.88 841 24.83 -1.2 29.8 94 -2.1 28.3 0 0
21:53 1012 29.88 841 24.83 -1.2 29.8 94 -2 28.4 0 0
21:54 1012 29.88 841 24.83 -1.3 29.7 95 -2 28.3 0 0
21:55 1012 29.88 841 24.83 -1.3 29.7 95 -2 28.3 0 0
21:56 1012 29.88 841 24.83 -1.3 29.6 95 -2 28.3 0 0
21:57 1012 29.88 841 24.83 -1.4 29.6 95 -2 28.4 0 0
21:58 1012 29.88 841 24.83 -1.4 29.6 96 -2 28.4 0 0
21:59 1012 29.88 841 24.83 -1.4 29.5 96 -2 28.5 0 0
22:00 1012 29.88 841 24.83 -1.4 29.5 96 -2 28.5 0 0
22:01 1012 29.88 841 24.83 -1.4 29.5 96 -2 28.5 0 0
22:02 1012 29.88 841 24.83 -1.4 29.4 96 -2 28.5 0 0
22:03 1012 29.88 842 24.86 -1.4 29.4 96 -2 28.5 0 0
22:04 1012 29.88 841 24.83 -1.5 29.3 96 -2 28.4 0 0
22:05 1012 29.88 842 24.86 -1.5 29.3 97 -2 28.5 0 0
22:06 1012 29.88 842 24.86 -1.5 29.3 97 -1.9 28.5 0 0
22:07 1012 29.88 842 24.86 -1.5 29.3 97 -2 28.5 0 0
22:08 1012 29.88 842 24.86 -1.5 29.3 97 -1.9 28.6 0 0
22:09 1012 29.88 842 24.86 -1.5 29.2 97 -1.9 28.5 0 0
22:10 1013 29.91 842 24.86 -1.5 29.2 97 -1.9 28.5 0 0
22:11 1013 29.91 842 24.86 -1.5 29.2 97 -1.9 28.6 0 0
22:12 1013 29.91 842 24.86 -1.5 29.2 98 -1.9 28.6 0 0
22:13 1013 29.91 842 24.86 -1.6 29.2 98 -1.9 28.6 0 0
22:14 1012 29.88 842 24.86 -1.6 29.2 98 -1.9 28.7 0 0
22:15 1012 29.88 842 24.86 -1.6 29.1 98 -1.9 28.6 0 0
22:16 1012 29.88 842 24.86 -1.6 29 98 -1.9 28.6 0 0
22:17 1012 29.88 842 24.86 -1.6 29.1 98 -1.9 28.6 0 0
22:18 1012 29.88 842 24.86 -1.7 29 98 -1.9 28.6 0 0
22:19 1012 29.88 842 24.86 -1.7 29 98 -1.9 28.6 0 0
22:20 1012 29.88 842 24.86 -1.7 29 98 -1.9 28.6 0 0
22:21 1012 29.88 842 24.86 -1.7 29 98 -1.9 28.6 0 0
22:22 1012 29.88 842 24.86 -1.7 28.9 99 -1.9 28.6 0 0
22:23 1012 29.88 842 24.86 -1.7 28.9 99 -1.9 28.6 0 0
22:24 1012 29.88 842 24.86 -1.7 28.9 99 -1.9 28.6 0 0
22:25 1012 29.88 842 24.86 -1.7 28.9 99 -1.9 28.6 0 0
22:26 1012 29.88 842 24.86 -1.7 28.9 99 -1.9 28.6 0 0
22:27 1012 29.88 842 24.86 -1.8 28.8 99 -1.9 28.5 0 0
22:28 1013 29.91 842 24.86 -1.7 28.9 99 -1.9 28.6 0 0
22:29 1013 29.91 842 24.86 -1.7 28.9 99 -1.9 28.6 0 0
22:30 1013 29.91 842 24.86 -1.7 28.9 99 -1.9 28.6 0 0
22:31 1013 29.91 842 24.86 -1.8 28.8 99 -1.9 28.6 0 0
22:32 1013 29.91 842 24.86 -1.8 28.8 99 -1.9 28.6 0 0
22:33 1012 29.88 842 24.86 -1.8 28.8 99 -1.9 28.6 0 0
22:34 1012 29.88 842 24.86 -1.8 28.8 99 -1.9 28.6 0 0
22:35 1012 29.88 842 24.86 -1.8 28.8 99 -1.9 28.6 0 0
22:36 1012 29.88 842 24.86 -1.8 28.8 99 -1.9 28.6 0 0
22:37 1012 29.88 842 24.86 -1.8 28.8 99 -1.9 28.6 0 0
22:38 1012 29.88 842 24.86 -1.8 28.8 99 -1.9 28.5 0 0
22:39 1012 29.88 842 24.86 -1.8 28.8 99 -1.9 28.6 0 0
22:40 1013 29.91 842 24.86 -1.8 28.7 99 -1.9 28.5 0 0
22:41 1013 29.91 842 24.86 -1.8 28.8 99 -1.9 28.5 0 0
22:42 1013 29.91 842 24.86 -1.8 28.8 99 -1.9 28.6 0 0
22:43 1013 29.91 842 24.86 -1.8 28.8 99 -1.9 28.6 0 0
22:44 1013 29.91 842 24.86 -1.8 28.8 99 -1.9 28.6 0 0
22:45 1013 29.91 842 24.86 -1.8 28.8 99 -1.9 28.6 0 0
22:46 1013 29.91 842 24.86 -1.8 28.8 99 -1.9 28.6 0 0
22:47 1012 29.88 842 24.86 -1.8 28.8 99 -1.9 28.6 0 0
22:48 1013 29.91 842 24.86 -1.8 28.8 99 -1.9 28.6 0 0
22:49 1013 29.91 842 24.86 -1.8 28.8 99 -1.9 28.5 0 0
22:50 1013 29.91 842 24.86 -1.8 28.8 99 -1.9 28.6 0 0
22:51 1013 29.91 842 24.86 -1.8 28.7 99 -1.9 28.5 0 0
22:52 1013 29.91 842 24.86 -1.8 28.8 99 -2 28.5 0 0
22:53 1013 29.91 842 24.86 -1.8 28.8 99 -1.9 28.5 0 0
22:54 1013 29.91 842 24.86 -1.8 28.8 99 -1.9 28.5 0 0
22:55 1012 29.88 842 24.86 -1.8 28.8 99 -1.9 28.5 0 0
22:56 1012 29.88 842 24.86 -1.8 28.8 99 -1.9 28.5 0 0
22:57 1012 29.88 842 24.86 -1.8 28.8 99 -1.9 28.5 0 0
22:58 1012 29.88 842 24.86 -1.8 28.8 99 -1.9 28.5 0 0
22:59 1013 29.91 842 24.86 -1.8 28.8 99 -1.9 28.5 0 0
23:00 1013 29.91 842 24.86 -1.8 28.8 99 -1.9 28.5 0 0
23:01 1013 29.91 842 24.86 -1.8 28.8 99 -1.9 28.5 0 0
23:02 1013 29.91 842 24.86 -1.7 28.9 99 -1.9 28.6 0 0
23:03 1013 29.91 842 24.86 -1.8 28.8 99 -1.9 28.5 0 0
23:04 1013 29.91 842 24.86 -1.7 28.9 99 -1.9 28.5 0 0
23:05 1013 29.91 842 24.86 -1.7 28.9 99 -1.9 28.5 0 0
23:06 1013 29.91 842 24.86 -1.7 28.9 99 -1.9 28.6 0 0
23:07 1013 29.91 842 24.86 -1.7 28.9 99 -1.9 28.5 0 0
23:08 1013 29.91 842 24.86 -1.7 29 99 -1.9 28.6 0 0
23:09 1013 29.91 842 24.86 -1.7 29 98 -1.9 28.6 0 0
23:10 1013 29.91 842 24.86 -1.7 29 98 -1.9 28.5 0 0
23:11 1013 29.91 842 24.86 -1.7 29 98 -1.9 28.5 0 0
23:12 1013 29.91 842 24.86 -1.7 28.9 98 -1.9 28.5 0 0
23:13 1013 29.91 842 24.86 -1.7 28.9 98 -1.9 28.5 0 0
23:14 1013 29.91 842 24.86 -1.7 28.9 98 -2 28.5 0 0
23:15 1013 29.91 842 24.86 -1.7 28.9 98 -2 28.5 0 0
23:16 1013 29.91 842 24.86 -1.7 28.9 98 -2 28.5 0 0
23:17 1013 29.91 842 24.86 -1.7 29 98 -1.9 28.5 0 0
23:18 1013 29.91 842 24.86 -1.7 29 98 -2 28.5 0 0
23:19 1013 29.91 842 24.86 -1.7 28.9 98 -1.9 28.5 0 0
23:20 1013 29.91 842 24.86 -1.7 29 98 -2 28.5 0 0
23:21 1013 29.91 842 24.86 -1.7 29 98 -1.9 28.6 0 0
23:22 1013 29.91 842 24.86 -1.7 29 98 -2 28.5 0 0
23:23 1013 29.91 842 24.86 -1.7 29 98 -1.9 28.5 0 0
23:24 1013 29.91 842 24.86 -1.7 29 98 -2 28.5 0 0
23:25 1013 29.91 842 24.86 -1.7 29 98 -1.9 28.5 0 0
23:26 1013 29.91 842 24.86 -1.7 29 98 -1.9 28.5 0 0
23:27 1013 29.91 842 24.86 -1.7 29 98 -1.9 28.5 0 0
23:28 1013 29.91 842 24.86 -1.7 29 98 -2 28.5 0 0
23:29 1013 29.91 842 24.86 -1.7 29 98 -1.9 28.5 0 0
23:30 1013 29.91 842 24.86 -1.7 28.9 98 -2 28.4 0 0
23:31 1013 29.91 842 24.86 -1.7 29 98 -2 28.5 0 0
23:32 1013 29.91 842 24.86 -1.7 29 98 -2 28.5 0 0
23:33 1013 29.91 842 24.86 -1.7 29 98 -2 28.4 0 0
23:34 1013 29.91 842 24.86 -1.7 29 98 -2 28.4 0 0
23:35 1013 29.91 842 24.86 -1.7 29 98 -2 28.5 0 0
23:36 1013 29.91 842 24.86 -1.7 29 98 -1.9 28.5 0 0
23:37 1013 29.91 842 24.86 -1.7 29 98 -1.9 28.5 0 0
23:38 1013 29.91 842 24.86 -1.7 29 98 -1.9 28.5 0 0
23:39 1013 29.91 842 24.86 -1.6 29.1 98 -1.9 28.6 0 0
23:40 1013 29.91 842 24.86 -1.6 29 98 -1.9 28.5 0 0
23:41 1013 29.91 842 24.86 -1.6 29.1 98 -1.9 28.5 0 0
23:42 1013 29.91 842 24.86 -1.6 29.1 98 -2 28.5 0 0
23:43 1013 29.91 842 24.86 -1.6 29 98 -2 28.5 0 0
23:44 1013 29.91 842 24.86 -1.6 29 98 -2 28.5 0 0
23:45 1013 29.91 842 24.86 -1.7 29 98 -2 28.4 0 0
23:46 1013 29.91 842 24.86 -1.7 29 98 -2 28.4 0 0
23:47 1013 29.91 842 24.86 -1.6 29 98 -2 28.5 0 0
23:48 1013 29.91 842 24.86 -1.7 29 98 -2 28.4 0 0
23:49 1013 29.91 842 24.86 -1.7 29 98 -2 28.4 0 0
23:50 1013 29.91 842 24.86 -1.7 28.9 98 -2 28.4 0 0
23:51 1013 29.91 842 24.86 -1.7 28.9 98 -2 28.3 0 0
23:52 1013 29.91 842 24.86 -1.7 28.9 98 -2 28.3 0 0
23:53 1013 29.91 842 24.86 -1.7 28.9 98 -2 28.4 0 0
23:54 1013 29.91 842 24.86 -1.7 28.9 98 -2 28.3 0 0
23:55 1013 29.91 842 24.86 -1.7 28.9 98 -2 28.4 0 0
23:56 1013 29.91 842 24.86 -1.7 28.9 98 -2 28.4 0 0
23:57 1013 29.91 842 24.86 -1.7 28.9 98 -2 28.4 0 0
23:58 1013 29.91 842 24.86 -1.7 28.9 98 -2 28.4 0 0
23:59 1013 29.91 842 24.86 -1.7 28.9 98 -2 28.4 0 0
24:00 1013 29.91 842 24.86 -1.7 28.9 98 -2 28.4 0 0